Observation data for Sierra Blanca on 07/05/2020      Previous  Date  Next       Current Mesonet Observations  Soil Data  Daily Summary Page  Observations in Plain Language
KSB1 050500Z 23004KT 27/14 A3009 RMK A01 T02650142  RH  047%=      5-min Rain = 0
KSB1 050501Z 23004KT 27/14 A3009 RMK A01 T02650142  RH  047%=      5-min Rain = 0
KSB1 050502Z 23004KT 27/14 A3009 RMK A01 T02650142  RH  047%=      5-min Rain = 0
KSB1 050503Z 23005KT 27/14 A3009 RMK A01 T02650142  RH  047%=      5-min Rain = 0
KSB1 050504Z 23005KT 26/14 A3009 RMK A01 T02640142  RH  047%=      5-min Rain = 0
KSB1 050505Z 23005KT 26/14 A3009 RMK A01 T02630141  RH  047%=      5-min Rain = 0
KSB1 050506Z 23005KT 26/14 A3009 RMK A01 T02620141  RH  047%=      5-min Rain = 0
KSB1 050507Z 23005KT 26/14 A3009 RMK A01 T02620141  RH  047%=      5-min Rain = 0
KSB1 050508Z 23005KT 26/14 A3009 RMK A01 T02620142  RH  048%=      5-min Rain = 0
KSB1 050509Z 23005KT 26/14 A3009 RMK A01 T02620142  RH  048%=      5-min Rain = 0
KSB1 050510Z 23005KT 26/14 A3009 RMK A01 T02620141  RH  047%=      5-min Rain = 0
KSB1 050511Z 23005KT 26/14 A3009 RMK A01 T02620141  RH  047%=      5-min Rain = 0
KSB1 050512Z 23006KT 26/14 A3009 RMK A01 T02620141  RH  047%=      5-min Rain = 0
KSB1 050513Z 23006KT 26/14 A3009 RMK A01 T02620141  RH  047%=      5-min Rain = 0
KSB1 050514Z 23006KT 26/14 A3009 RMK A01 T02620141  RH  047%=      5-min Rain = 0
KSB1 050515Z 23006KT 26/14 A3009 RMK A01 T02620141  RH  047%=      5-min Rain = 0
KSB1 050516Z 23006KT 26/14 A3009 RMK A01 T02620141  RH  047%=      5-min Rain = 0
KSB1 050517Z 23006KT 26/14 A3009 RMK A01 T02620141  RH  047%=      5-min Rain = 0
KSB1 050518Z 23006KT 26/14 A3009 RMK A01 T02620141  RH  047%=      5-min Rain = 0
KSB1 050519Z 22006KT 26/14 A3009 RMK A01 T02620141  RH  047%=      5-min Rain = 0
KSB1 050520Z 23007KT 26/14 A3009 RMK A01 T02610141  RH  047%=      5-min Rain = 0
KSB1 050521Z 22007KT 26/14 A3009 RMK A01 T02610141  RH  048%=      5-min Rain = 0
KSB1 050522Z 22007KT 26/14 A3009 RMK A01 T02600141  RH  048%=      5-min Rain = 0
KSB1 050523Z 22007KT 26/14 A3009 RMK A01 T02590141  RH  048%=      5-min Rain = 0
KSB1 050524Z 23007KT 26/14 A3009 RMK A01 T02590141  RH  048%=      5-min Rain = 0
KSB1 050525Z 23007KT 26/14 A3009 RMK A01 T02590141  RH  048%=      5-min Rain = 0
KSB1 050526Z 23008KT 26/14 A3009 RMK A01 T02590141  RH  048%=      5-min Rain = 0
KSB1 050527Z 23007KT 26/14 A3009 RMK A01 T02590141  RH  048%=      5-min Rain = 0
KSB1 050528Z 23008KT 26/14 A3009 RMK A01 T02590141  RH  048%=      5-min Rain = 0
KSB1 050529Z 23007KT 26/14 A3009 RMK A01 T02600141  RH  048%=      5-min Rain = 0
KSB1 050530Z 23009KT 26/14 A3009 RMK A01 T02600140  RH  048%=      5-min Rain = 0
KSB1 050531Z 23009KT 26/14 A3009 RMK A01 T02600140  RH  048%=      5-min Rain = 0
KSB1 050532Z 23009KT 26/14 A3009 RMK A01 T02610140  RH  047%=      5-min Rain = 0
KSB1 050533Z 23008KT 26/14 A3009 RMK A01 T02610139  RH  047%=      5-min Rain = 0
KSB1 050534Z 24008KT 26/14 A3009 RMK A01 T02620139  RH  047%=      5-min Rain = 0
KSB1 050535Z 24007KT 26/14 A3009 RMK A01 T02620139  RH  047%=      5-min Rain = 0
KSB1 050536Z 25007KT 26/14 A3009 RMK A01 T02620139  RH  047%=      5-min Rain = 0
KSB1 050537Z 24008KT 26/14 A3009 RMK A01 T02620140  RH  047%=      5-min Rain = 0
KSB1 050538Z 24008KT 26/14 A3009 RMK A01 T02620140  RH  047%=      5-min Rain = 0
KSB1 050539Z 24007KT 26/14 A3009 RMK A01 T02620141  RH  047%=      5-min Rain = 0
KSB1 050540Z 24006KT 26/14 A3009 RMK A01 T02620141  RH  047%=      5-min Rain = 0
KSB1 050541Z 24006KT 26/14 A3009 RMK A01 T02620140  RH  047%=      5-min Rain = 0
KSB1 050542Z 23006KT 26/14 A3009 RMK A01 T02620140  RH  047%=      5-min Rain = 0
KSB1 050543Z 23008KT 26/14 A3009 RMK A01 T02610140  RH  047%=      5-min Rain = 0
KSB1 050544Z 23007KT 26/14 A3009 RMK A01 T02620140  RH  047%=      5-min Rain = 0
KSB1 050545Z 22007KT 26/14 A3009 RMK A01 T02630140  RH  046%=      5-min Rain = 0
KSB1 050546Z 22006KT 26/14 A3009 RMK A01 T02640139  RH  046%=      5-min Rain = 0
KSB1 050547Z 22007KT 26/14 A3009 RMK A01 T02640139  RH  046%=      5-min Rain = 0
KSB1 050548Z 21007KT 26/14 A3009 RMK A01 T02640138  RH  046%=      5-min Rain = 0
KSB1 050549Z 21007KT 26/14 A3009 RMK A01 T02640138  RH  046%=      5-min Rain = 0
KSB1 050550Z 22007KT 26/14 A3009 RMK A01 T02640138  RH  046%=      5-min Rain = 0
KSB1 050551Z 22009KT 26/14 A3009 RMK A01 T02640138  RH  046%=      5-min Rain = 0
KSB1 050552Z 23009KT 27/14 A3009 RMK A01 T02650138  RH  046%=      5-min Rain = 0
KSB1 050553Z 22010KT 27/14 A3009 RMK A01 T02660138  RH  046%=      5-min Rain = 0
KSB1 050554Z 22008KT 27/14 A3009 RMK A01 T02650138  RH  045%=      5-min Rain = 0
KSB1 050555Z 21008KT 27/14 A3009 RMK A01 T02650138  RH  046%=      5-min Rain = 0
KSB1 050556Z 21008KT 26/14 A3009 RMK A01 T02640138  RH  046%=      5-min Rain = 0
KSB1 050557Z 21007KT 26/14 A3009 RMK A01 T02630138  RH  046%=      5-min Rain = 0
KSB1 050558Z 21007KT 26/14 A3009 RMK A01 T02620138  RH  046%=      5-min Rain = 0
KSB1 050559Z 20006KT 26/14 A3009 RMK A01 T02620138  RH  046%=      5-min Rain = 0
KSB1 050600Z 20006KT 26/14 A3009 RMK A01 T02610139  RH  047%=      5-min Rain = 0
KSB1 050601Z 20005KT 26/14 A3009 RMK A01 T02600138  RH  047%=      5-min Rain = 0
KSB1 050602Z 20006KT 26/14 A3009 RMK A01 T02590139  RH  047%=      5-min Rain = 0
KSB1 050603Z 20005KT 26/14 A301 RMK A01 T02590139  RH  048%=      5-min Rain = 0
KSB1 050604Z 21005KT 26/14 A301 RMK A01 T02580139  RH  048%=      5-min Rain = 0
KSB1 050605Z 21005KT 26/14 A301 RMK A01 T02570139  RH  048%=      5-min Rain = 0
KSB1 050606Z 21005KT 26/14 A301 RMK A01 T02560139  RH  048%=      5-min Rain = 0
KSB1 050607Z 21005KT 26/14 A301 RMK A01 T02560139  RH  049%=      5-min Rain = 0
KSB1 050608Z 21004KT 26/14 A301 RMK A01 T02550140  RH  049%=      5-min Rain = 0
KSB1 050609Z 20003KT 26/14 A3009 RMK A01 T02550139  RH  049%=      5-min Rain = 0
KSB1 050610Z 18003KT 26/14 A3009 RMK A01 T02550140  RH  049%=      5-min Rain = 0
KSB1 050611Z 18003KT 26/14 A3009 RMK A01 T02550140  RH  049%=      5-min Rain = 0
KSB1 050612Z 17003KT 25/14 A3009 RMK A01 T02540140  RH  049%=      5-min Rain = 0
KSB1 050613Z 18003KT 25/14 A3009 RMK A01 T02540140  RH  049%=      5-min Rain = 0
KSB1 050614Z 19004KT 25/14 A3009 RMK A01 T02540141  RH  050%=      5-min Rain = 0
KSB1 050615Z 20004KT 25/14 A3009 RMK A01 T02530140  RH  050%=      5-min Rain = 0
KSB1 050616Z 20005KT 25/14 A3009 RMK A01 T02520139  RH  050%=      5-min Rain = 0
KSB1 050617Z 20004KT 25/14 A3009 RMK A01 T02500139  RH  050%=      5-min Rain = 0
KSB1 050618Z 18003KT 25/14 A3009 RMK A01 T02480139  RH  051%=      5-min Rain = 0
KSB1 050619Z 16003KT 25/14 A3009 RMK A01 T02460139  RH  051%=      5-min Rain = 0
KSB1 050620Z 15003KT 25/14 A3009 RMK A01 T02450139  RH  052%=      5-min Rain = 0
KSB1 050621Z 16004KT 25/14 A3009 RMK A01 T02450140  RH  052%=      5-min Rain = 0
KSB1 050622Z 16004KT 25/14 A3009 RMK A01 T02450141  RH  052%=      5-min Rain = 0
KSB1 050623Z 17003KT 25/14 A3009 RMK A01 T02450142  RH  053%=      5-min Rain = 0
KSB1 050624Z 19003KT 25/14 A3009 RMK A01 T02450143  RH  053%=      5-min Rain = 0
KSB1 050625Z 21003KT 25/14 A3009 RMK A01 T02450143  RH  053%=      5-min Rain = 0
KSB1 050626Z 21003KT 25/14 A3009 RMK A01 T02450144  RH  053%=      5-min Rain = 0
KSB1 050627Z 21003KT 25/15 A3009 RMK A01 T02450145  RH  053%=      5-min Rain = 0
KSB1 050628Z 20003KT 25/15 A3009 RMK A01 T02450145  RH  053%=      5-min Rain = 0
KSB1 050629Z 20003KT 25/15 A3009 RMK A01 T02460145  RH  053%=      5-min Rain = 0
KSB1 050630Z 20003KT 25/15 A3009 RMK A01 T02460145  RH  053%=      5-min Rain = 0
KSB1 050631Z 20003KT 25/15 A3009 RMK A01 T02460146  RH  054%=      5-min Rain = 0
KSB1 050632Z 19003KT 25/15 A3009 RMK A01 T02460146  RH  054%=      5-min Rain = 0
KSB1 050633Z 18003KT 25/15 A3009 RMK A01 T02460147  RH  054%=      5-min Rain = 0
KSB1 050634Z 18003KT 25/15 A3009 RMK A01 T02460147  RH  054%=      5-min Rain = 0
KSB1 050635Z 18002KT 25/15 A3009 RMK A01 T02470149  RH  054%=      5-min Rain = 0
KSB1 050636Z 19002KT 25/15 A3009 RMK A01 T02480150  RH  054%=      5-min Rain = 0
KSB1 050637Z 19002KT 25/15 A3009 RMK A01 T02480149  RH  054%=      5-min Rain = 0
KSB1 050638Z 19002KT 25/15 A3009 RMK A01 T02480149  RH  054%=      5-min Rain = 0
KSB1 050639Z 19002KT 25/15 A301 RMK A01 T02480149  RH  054%=      5-min Rain = 0
KSB1 050640Z 19002KT 25/15 A3009 RMK A01 T02470148  RH  054%=      5-min Rain = 0
KSB1 050641Z 18003KT 25/15 A3009 RMK A01 T02470148  RH  054%=      5-min Rain = 0
KSB1 050642Z 18003KT 25/15 A3009 RMK A01 T02470148  RH  054%=      5-min Rain = 0
KSB1 050643Z 19003KT 25/15 A3009 RMK A01 T02470147  RH  054%=      5-min Rain = 0
KSB1 050644Z 19003KT 25/15 A3009 RMK A01 T02470148  RH  054%=      5-min Rain = 0
KSB1 050645Z 20003KT 25/15 A3009 RMK A01 T02470147  RH  054%=      5-min Rain = 0
KSB1 050646Z 20004KT 25/15 A3009 RMK A01 T02470147  RH  054%=      5-min Rain = 0
KSB1 050647Z 21004KT 25/15 A3009 RMK A01 T02470147  RH  054%=      5-min Rain = 0
KSB1 050648Z 21004KT 25/15 A3009 RMK A01 T02460147  RH  054%=      5-min Rain = 0
KSB1 050649Z 20004KT 25/15 A3009 RMK A01 T02450146  RH  054%=      5-min Rain = 0
KSB1 050650Z 19003KT 25/15 A3009 RMK A01 T02450146  RH  054%=      5-min Rain = 0
KSB1 050651Z 21003KT 25/15 A3009 RMK A01 T02460146  RH  054%=      5-min Rain = 0
KSB1 050652Z 22004KT 25/15 A3009 RMK A01 T02460146  RH  054%=      5-min Rain = 0
KSB1 050653Z 22004KT 25/15 A3009 RMK A01 T02460146  RH  054%=      5-min Rain = 0
KSB1 050654Z 22004KT 25/15 A3009 RMK A01 T02460145  RH  053%=      5-min Rain = 0
KSB1 050655Z 23003KT 25/15 A3009 RMK A01 T02470145  RH  053%=      5-min Rain = 0
KSB1 050656Z 24004KT 25/15 A3009 RMK A01 T02480146  RH  053%=      5-min Rain = 0
KSB1 050657Z 24004KT 25/15 A301 RMK A01 T02470145  RH  053%=      5-min Rain = 0
KSB1 050658Z 23003KT 25/15 A301 RMK A01 T02470146  RH  054%=      5-min Rain = 0
KSB1 050659Z 23004KT 25/15 A301 RMK A01 T02460146  RH  054%=      5-min Rain = 0
KSB1 050700Z 24004KT 25/15 A301 RMK A01 T02450145  RH  054%=      5-min Rain = 0
KSB1 050701Z 24004KT 24/15 A301 RMK A01 T02440145  RH  054%=      5-min Rain = 0
KSB1 050702Z 24004KT 24/15 A301 RMK A01 T02430145  RH  054%=      5-min Rain = 0
KSB1 050703Z 24004KT 24/15 A301 RMK A01 T02420145  RH  055%=      5-min Rain = 0
KSB1 050704Z 24004KT 24/15 A301 RMK A01 T02410145  RH  055%=      5-min Rain = 0
KSB1 050705Z 24004KT 24/15 A301 RMK A01 T02410145  RH  055%=      5-min Rain = 0
KSB1 050706Z 24004KT 24/15 A301 RMK A01 T02400146  RH  055%=      5-min Rain = 0
KSB1 050707Z 23004KT 24/15 A301 RMK A01 T02400146  RH  055%=      5-min Rain = 0
KSB1 050708Z 24004KT 24/15 A301 RMK A01 T02400145  RH  055%=      5-min Rain = 0
KSB1 050709Z 24004KT 24/15 A301 RMK A01 T02390145  RH  056%=      5-min Rain = 0
KSB1 050710Z 25003KT 24/14 A301 RMK A01 T02380143  RH  055%=      5-min Rain = 0
KSB1 050711Z 24003KT 24/14 A301 RMK A01 T02370143  RH  055%=      5-min Rain = 0
KSB1 050712Z 23003KT 24/14 A301 RMK A01 T02370142  RH  055%=      5-min Rain = 0
KSB1 050713Z 24003KT 24/14 A301 RMK A01 T02360142  RH  055%=      5-min Rain = 0
KSB1 050714Z 25003KT 24/14 A301 RMK A01 T02360142  RH  055%=      5-min Rain = 0
KSB1 050715Z 24004KT 24/14 A301 RMK A01 T02360142  RH  056%=      5-min Rain = 0
KSB1 050716Z 24004KT 24/14 A3009 RMK A01 T02350142  RH  056%=      5-min Rain = 0
KSB1 050717Z 24003KT 24/14 A3009 RMK A01 T02360143  RH  056%=      5-min Rain = 0
KSB1 050718Z 24003KT 24/14 A3009 RMK A01 T02360143  RH  056%=      5-min Rain = 0
KSB1 050719Z 24003KT 24/14 A3009 RMK A01 T02360143  RH  056%=      5-min Rain = 0
KSB1 050720Z 25003KT 24/14 A3009 RMK A01 T02360144  RH  056%=      5-min Rain = 0
KSB1 050721Z 24003KT 24/15 A3009 RMK A01 T02360145  RH  056%=      5-min Rain = 0
KSB1 050722Z 25004KT 24/15 A3009 RMK A01 T02370145  RH  056%=      5-min Rain = 0
KSB1 050723Z 26004KT 24/15 A3009 RMK A01 T02370145  RH  056%=      5-min Rain = 0
KSB1 050724Z 25004KT 24/15 A3009 RMK A01 T02360146  RH  057%=      5-min Rain = 0
KSB1 050725Z 24005KT 24/15 A3009 RMK A01 T02360146  RH  057%=      5-min Rain = 0
KSB1 050726Z 25005KT 24/15 A3009 RMK A01 T02360147  RH  057%=      5-min Rain = 0
KSB1 050727Z 25005KT 24/15 A3009 RMK A01 T02350147  RH  058%=      5-min Rain = 0
KSB1 050728Z 24005KT 24/15 A3009 RMK A01 T02350147  RH  058%=      5-min Rain = 0
KSB1 050729Z 24005KT 24/15 A3009 RMK A01 T02350147  RH  058%=      5-min Rain = 0
KSB1 050730Z 24006KT 23/15 A3009 RMK A01 T02340147  RH  058%=      5-min Rain = 0
KSB1 050731Z 24006KT 23/15 A3009 RMK A01 T02330147  RH  058%=      5-min Rain = 0
KSB1 050732Z 23006KT 23/15 A3009 RMK A01 T02320147  RH  059%=      5-min Rain = 0
KSB1 050733Z 23006KT 23/15 A3009 RMK A01 T02300147  RH  059%=      5-min Rain = 0
KSB1 050734Z 23006KT 23/15 A3009 RMK A01 T02290147  RH  060%=      5-min Rain = 0
KSB1 050735Z 23006KT 23/15 A3009 RMK A01 T02280147  RH  060%=      5-min Rain = 0
KSB1 050736Z 23006KT 23/15 A3009 RMK A01 T02270146  RH  060%=      5-min Rain = 0
KSB1 050737Z 23006KT 23/15 A3009 RMK A01 T02270147  RH  061%=      5-min Rain = 0
KSB1 050738Z 23005KT 23/15 A3009 RMK A01 T02260147  RH  061%=      5-min Rain = 0
KSB1 050739Z 24005KT 23/15 A3009 RMK A01 T02260148  RH  061%=      5-min Rain = 0
KSB1 050740Z 25005KT 23/15 A3009 RMK A01 T02260148  RH  062%=      5-min Rain = 0
KSB1 050741Z 24005KT 23/15 A3009 RMK A01 T02260149  RH  062%=      5-min Rain = 0
KSB1 050742Z 24005KT 23/15 A3009 RMK A01 T02270150  RH  062%=      5-min Rain = 0
KSB1 050743Z 24005KT 23/15 A3009 RMK A01 T02280150  RH  061%=      5-min Rain = 0
KSB1 050744Z 24005KT 23/15 A3009 RMK A01 T02280150  RH  061%=      5-min Rain = 0
KSB1 050745Z 24006KT 23/15 A3009 RMK A01 T02280150  RH  061%=      5-min Rain = 0
KSB1 050746Z 24006KT 23/15 A3009 RMK A01 T02280150  RH  061%=      5-min Rain = 0
KSB1 050747Z 23006KT 23/15 A3009 RMK A01 T02290151  RH  062%=      5-min Rain = 0
KSB1 050748Z 23005KT 23/15 A3009 RMK A01 T02290151  RH  062%=      5-min Rain = 0
KSB1 050749Z 22005KT 23/15 A3009 RMK A01 T02290151  RH  062%=      5-min Rain = 0
KSB1 050750Z 22006KT 23/15 A3009 RMK A01 T02290151  RH  061%=      5-min Rain = 0
KSB1 050751Z 22006KT 23/15 A3009 RMK A01 T02290151  RH  061%=      5-min Rain = 0
KSB1 050752Z 22006KT 23/15 A3009 RMK A01 T02290151  RH  061%=      5-min Rain = 0
KSB1 050753Z 22006KT 23/15 A3009 RMK A01 T02280150  RH  061%=      5-min Rain = 0
KSB1 050754Z 23006KT 23/15 A3009 RMK A01 T02270150  RH  062%=      5-min Rain = 0
KSB1 050755Z 23006KT 23/15 A3009 RMK A01 T02250150  RH  062%=      5-min Rain = 0
KSB1 050756Z 23006KT 23/15 A3009 RMK A01 T02250150  RH  063%=      5-min Rain = 0
KSB1 050757Z 24006KT 22/15 A3009 RMK A01 T02240151  RH  063%=      5-min Rain = 0
KSB1 050758Z 24006KT 22/15 A3009 RMK A01 T02240151  RH  063%=      5-min Rain = 0
KSB1 050759Z 24006KT 22/15 A3009 RMK A01 T02240152  RH  063%=      5-min Rain = 0
KSB1 050800Z 24006KT 23/15 A3009 RMK A01 T02250152  RH  063%=      5-min Rain = 0
KSB1 050801Z 24006KT 23/15 A3009 RMK A01 T02250152  RH  063%=      5-min Rain = 0
KSB1 050802Z 23007KT 23/15 A3009 RMK A01 T02250152  RH  063%=      5-min Rain = 0
KSB1 050803Z 23007KT 23/15 A3009 RMK A01 T02250151  RH  063%=      5-min Rain = 0
KSB1 050804Z 22007KT 23/15 A3009 RMK A01 T02250151  RH  063%=      5-min Rain = 0
KSB1 050805Z 23007KT 22/15 A3009 RMK A01 T02240151  RH  063%=      5-min Rain = 0
KSB1 050806Z 26006KT 22/15 A3009 RMK A01 T02240151  RH  063%=      5-min Rain = 0
KSB1 050807Z 25006KT 22/15 A3009 RMK A01 T02240151  RH  063%=      5-min Rain = 0
KSB1 050808Z 25007KT 23/15 A3009 RMK A01 T02270152  RH  062%=      5-min Rain = 0
KSB1 050809Z 27006KT 23/15 A3009 RMK A01 T02280153  RH  062%=      5-min Rain = 0
KSB1 050810Z 28006KT 23/15 A3009 RMK A01 T02280154  RH  063%=      5-min Rain = 0
KSB1 050811Z 28006KT 23/15 A3009 RMK A01 T02290154  RH  063%=      5-min Rain = 0
KSB1 050812Z 29005KT 23/15 A3009 RMK A01 T02310154  RH  062%=      5-min Rain = 0
KSB1 050813Z 29006KT 23/15 A3009 RMK A01 T02340153  RH  060%=      5-min Rain = 0
KSB1 050814Z 29005KT 24/15 A301 RMK A01 T02360152  RH  059%=      5-min Rain = 0
KSB1 050815Z 29006KT 24/15 A301 RMK A01 T02380152  RH  058%=      5-min Rain = 0
KSB1 050816Z 29005KT 24/15 A301 RMK A01 T02390152  RH  058%=      5-min Rain = 0
KSB1 050817Z 29005KT 24/15 A301 RMK A01 T02390151  RH  058%=      5-min Rain = 0
KSB1 050818Z 28004KT 24/15 A301 RMK A01 T02400151  RH  057%=      5-min Rain = 0
KSB1 050819Z 28004KT 24/15 A301 RMK A01 T02410150  RH  057%=      5-min Rain = 0
KSB1 050820Z 27004KT 24/15 A301 RMK A01 T02420149  RH  056%=      5-min Rain = 0
KSB1 050821Z 27003KT 24/15 A301 RMK A01 T02420149  RH  056%=      5-min Rain = 0
KSB1 050822Z 27004KT 24/15 A301 RMK A01 T02420149  RH  056%=      5-min Rain = 0
KSB1 050823Z 26004KT 24/15 A301 RMK A01 T02420148  RH  056%=      5-min Rain = 0
KSB1 050824Z 26004KT 24/15 A301 RMK A01 T02420146  RH  055%=      5-min Rain = 0
KSB1 050825Z 25004KT 24/15 A301 RMK A01 T02420147  RH  055%=      5-min Rain = 0
KSB1 050826Z 25004KT 24/15 A301 RMK A01 T02410146  RH  055%=      5-min Rain = 0
KSB1 050827Z 25003KT 24/15 A301 RMK A01 T02410145  RH  055%=      5-min Rain = 0
KSB1 050828Z 25003KT 24/15 A301 RMK A01 T02400145  RH  055%=      5-min Rain = 0
KSB1 050829Z 25003KT 24/15 A301 RMK A01 T02400145  RH  055%=      5-min Rain = 0
KSB1 050830Z 25003KT 24/14 A301 RMK A01 T02390144  RH  055%=      5-min Rain = 0
KSB1 050831Z 25003KT 24/14 A301 RMK A01 T02390144  RH  055%=      5-min Rain = 0
KSB1 050832Z 25003KT 24/14 A301 RMK A01 T02390142  RH  055%=      5-min Rain = 0
KSB1 050833Z 24003KT 24/14 A301 RMK A01 T02390141  RH  054%=      5-min Rain = 0
KSB1 050834Z 24003KT 24/14 A301 RMK A01 T02380141  RH  054%=      5-min Rain = 0
KSB1 050835Z 23004KT 24/14 A301 RMK A01 T02390141  RH  054%=      5-min Rain = 0
KSB1 050836Z 24003KT 24/14 A301 RMK A01 T02390140  RH  054%=      5-min Rain = 0
KSB1 050837Z 24004KT 24/14 A301 RMK A01 T02380140  RH  054%=      5-min Rain = 0
KSB1 050838Z 24004KT 24/14 A301 RMK A01 T02380139  RH  054%=      5-min Rain = 0
KSB1 050839Z 24004KT 24/14 A301 RMK A01 T02370138  RH  054%=      5-min Rain = 0
KSB1 050840Z 23004KT 24/14 A301 RMK A01 T02370137  RH  053%=      5-min Rain = 0
KSB1 050841Z 23004KT 24/14 A301 RMK A01 T02370136  RH  053%=      5-min Rain = 0
KSB1 050842Z 23005KT 24/14 A301 RMK A01 T02370136  RH  053%=      5-min Rain = 0
KSB1 050843Z 24005KT 24/13 A301 RMK A01 T02370134  RH  052%=      5-min Rain = 0
KSB1 050844Z 24005KT 24/13 A301 RMK A01 T02390134  RH  052%=      5-min Rain = 0
KSB1 050845Z 24004KT 24/13 A301 RMK A01 T02400134  RH  051%=      5-min Rain = 0
KSB1 050846Z 26003KT 24/13 A301 RMK A01 T02400134  RH  051%=      5-min Rain = 0
KSB1 050847Z 26004KT 24/13 A301 RMK A01 T02400133  RH  051%=      5-min Rain = 0
KSB1 050848Z 25003KT 24/13 A301 RMK A01 T02400132  RH  051%=      5-min Rain = 0
KSB1 050849Z 25004KT 24/13 A301 RMK A01 T02400131  RH  050%=      5-min Rain = 0
KSB1 050850Z 26004KT 24/13 A301 RMK A01 T02410130  RH  050%=      5-min Rain = 0
KSB1 050851Z 25005KT 24/13 A301 RMK A01 T02410130  RH  050%=      5-min Rain = 0
KSB1 050852Z 25005KT 24/13 A301 RMK A01 T02400130  RH  050%=      5-min Rain = 0
KSB1 050853Z 25005KT 24/13 A301 RMK A01 T02390130  RH  050%=      5-min Rain = 0
KSB1 050854Z 25005KT 24/13 A301 RMK A01 T02380129  RH  050%=      5-min Rain = 0
KSB1 050855Z 25006KT 24/13 A301 RMK A01 T02370129  RH  050%=      5-min Rain = 0
KSB1 050856Z 26006KT 24/13 A301 RMK A01 T02370129  RH  051%=      5-min Rain = 0
KSB1 050857Z 26006KT 24/13 A301 RMK A01 T02370128  RH  050%=      5-min Rain = 0
KSB1 050858Z 25007KT 24/13 A3009 RMK A01 T02380128  RH  050%=      5-min Rain = 0
KSB1 050859Z 25008KT 24/13 A3009 RMK A01 T02390128  RH  050%=      5-min Rain = 0
KSB1 050900Z 24007KT 24/13 A3009 RMK A01 T02400128  RH  050%=      5-min Rain = 0
KSB1 050901Z 24008KT 24/13 A3009 RMK A01 T02400127  RH  049%=      5-min Rain = 0
KSB1 050902Z 24007KT 24/13 A3009 RMK A01 T02400128  RH  049%=      5-min Rain = 0
KSB1 050903Z 23007KT 24/13 A3009 RMK A01 T02410128  RH  049%=      5-min Rain = 0
KSB1 050904Z 23007KT 24/13 A3009 RMK A01 T02410128  RH  049%=      5-min Rain = 0
KSB1 050905Z 24007KT 24/13 A3009 RMK A01 T02400127  RH  049%=      5-min Rain = 0
KSB1 050906Z 26005KT 24/13 A3009 RMK A01 T02400127  RH  049%=      5-min Rain = 0
KSB1 050907Z 28005KT 24/13 A3009 RMK A01 T02400127  RH  049%=      5-min Rain = 0
KSB1 050908Z 27005KT 24/13 A3009 RMK A01 T02410127  RH  049%=      5-min Rain = 0
KSB1 050909Z 27005KT 24/13 A3009 RMK A01 T02410127  RH  049%=      5-min Rain = 0
KSB1 050910Z 26005KT 24/13 A3009 RMK A01 T02420127  RH  049%=      5-min Rain = 0
KSB1 050911Z 25006KT 24/13 A3009 RMK A01 T02420127  RH  048%=      5-min Rain = 0
KSB1 050912Z 25006KT 24/13 A3009 RMK A01 T02420127  RH  048%=      5-min Rain = 0
KSB1 050913Z 26006KT 24/13 A3009 RMK A01 T02420127  RH  048%=      5-min Rain = 0
KSB1 050914Z 26006KT 24/13 A3009 RMK A01 T02430127  RH  049%=      5-min Rain = 0
KSB1 050915Z 27006KT 24/13 A3009 RMK A01 T02420127  RH  049%=      5-min Rain = 0
KSB1 050916Z 28005KT 24/13 A3009 RMK A01 T02430127  RH  048%=      5-min Rain = 0
KSB1 050917Z 29004KT 24/13 A3009 RMK A01 T02430128  RH  048%=      5-min Rain = 0
KSB1 050918Z 33005KT 24/13 A3009 RMK A01 T02430128  RH  049%=      5-min Rain = 0
KSB1 050919Z 34005KT 24/14 A3009 RMK A01 T02430138  RH  052%=      5-min Rain = 0
KSB1 050920Z 36004KT 24/14 A3009 RMK A01 T02390141  RH  054%=      5-min Rain = 0
KSB1 050921Z 01004KT 24/15 A3009 RMK A01 T02350145  RH  057%=      5-min Rain = 0
KSB1 050922Z 01003KT 23/15 A3009 RMK A01 T02320146  RH  058%=      5-min Rain = 0
KSB1 050923Z 00003KT 23/15 A3009 RMK A01 T02300145  RH  059%=      5-min Rain = 0
KSB1 050924Z 00004KT 23/15 A3009 RMK A01 T02280145  RH  060%=      5-min Rain = 0
KSB1 050925Z 00004KT 23/15 A3009 RMK A01 T02270146  RH  060%=      5-min Rain = 0
KSB1 050926Z 01004KT 23/15 A3009 RMK A01 T02250146  RH  061%=      5-min Rain = 0
KSB1 050927Z 01004KT 23/15 A3009 RMK A01 T02250146  RH  061%=      5-min Rain = 0
KSB1 050928Z 01004KT 22/15 A301 RMK A01 T02240147  RH  062%=      5-min Rain = 0
KSB1 050929Z 02004KT 22/15 A301 RMK A01 T02230148  RH  062%=      5-min Rain = 0
KSB1 050930Z 02004KT 22/15 A301 RMK A01 T02220148  RH  063%=      5-min Rain = 0
KSB1 050931Z 02004KT 22/15 A301 RMK A01 T02220149  RH  063%=      5-min Rain = 0
KSB1 050932Z 03003KT 22/15 A301 RMK A01 T02220149  RH  063%=      5-min Rain = 0
KSB1 050933Z 03003KT 22/15 A301 RMK A01 T02220149  RH  063%=      5-min Rain = 0
KSB1 050934Z 03003KT 22/15 A301 RMK A01 T02210149  RH  063%=      5-min Rain = 0
KSB1 050935Z 02003KT 22/15 A301 RMK A01 T02210148  RH  064%=      5-min Rain = 0
KSB1 050936Z 03004KT 22/15 A3009 RMK A01 T02200148  RH  064%=      5-min Rain = 0
KSB1 050937Z 03004KT 22/15 A301 RMK A01 T02190148  RH  064%=      5-min Rain = 0
KSB1 050938Z 03005KT 22/15 A301 RMK A01 T02190148  RH  064%=      5-min Rain = 0
KSB1 050939Z 02005KT 22/15 A301 RMK A01 T02180148  RH  064%=      5-min Rain = 0
KSB1 050940Z 02005KT 22/15 A301 RMK A01 T02180149  RH  065%=      5-min Rain = 0
KSB1 050941Z 01005KT 22/15 A301 RMK A01 T02180150  RH  065%=      5-min Rain = 0
KSB1 050942Z 01005KT 22/15 A301 RMK A01 T02180150  RH  065%=      5-min Rain = 0
KSB1 050943Z 01005KT 22/15 A301 RMK A01 T02190150  RH  065%=      5-min Rain = 0
KSB1 050944Z 01005KT 22/15 A301 RMK A01 T02190151  RH  065%=      5-min Rain = 0
KSB1 050945Z 01004KT 22/15 A301 RMK A01 T02200151  RH  065%=      5-min Rain = 0
KSB1 050946Z 02004KT 22/15 A301 RMK A01 T02200151  RH  065%=      5-min Rain = 0
KSB1 050947Z 01004KT 22/15 A301 RMK A01 T02200151  RH  065%=      5-min Rain = 0
KSB1 050948Z 01005KT 22/15 A301 RMK A01 T02200151  RH  065%=      5-min Rain = 0
KSB1 050949Z 01005KT 22/15 A301 RMK A01 T02200151  RH  065%=      5-min Rain = 0
KSB1 050950Z 01005KT 22/15 A301 RMK A01 T02210151  RH  065%=      5-min Rain = 0
KSB1 050951Z 00005KT 22/15 A301 RMK A01 T02210151  RH  064%=      5-min Rain = 0
KSB1 050952Z 00005KT 22/15 A301 RMK A01 T02210151  RH  065%=      5-min Rain = 0
KSB1 050953Z 00006KT 22/15 A301 RMK A01 T02210151  RH  064%=      5-min Rain = 0
KSB1 050954Z 00006KT 22/15 A301 RMK A01 T02210151  RH  064%=      5-min Rain = 0
KSB1 050955Z 00006KT 22/15 A301 RMK A01 T02210150  RH  064%=      5-min Rain = 0
KSB1 050956Z 01006KT 22/15 A301 RMK A01 T02210150  RH  064%=      5-min Rain = 0
KSB1 050957Z 01006KT 22/15 A301 RMK A01 T02220151  RH  064%=      5-min Rain = 0
KSB1 050958Z 00005KT 22/15 A301 RMK A01 T02220150  RH  064%=      5-min Rain = 0
KSB1 050959Z 01005KT 22/15 A301 RMK A01 T02230151  RH  063%=      5-min Rain = 0
KSB1 051000Z 01005KT 22/15 A301 RMK A01 T02230150  RH  063%=      5-min Rain = 0
KSB1 051001Z 02005KT 22/15 A301 RMK A01 T02230150  RH  063%=      5-min Rain = 0
KSB1 051002Z 02004KT 22/15 A301 RMK A01 T02240150  RH  063%=      5-min Rain = 0
KSB1 051003Z 02004KT 22/15 A301 RMK A01 T02240151  RH  063%=      5-min Rain = 0
KSB1 051004Z 02004KT 23/15 A301 RMK A01 T02250151  RH  063%=      5-min Rain = 0
KSB1 051005Z 02004KT 23/15 A301 RMK A01 T02250151  RH  063%=      5-min Rain = 0
KSB1 051006Z 03004KT 23/15 A301 RMK A01 T02250151  RH  063%=      5-min Rain = 0
KSB1 051007Z 03005KT 22/15 A301 RMK A01 T02240151  RH  063%=      5-min Rain = 0
KSB1 051008Z 02005KT 22/15 A301 RMK A01 T02240151  RH  063%=      5-min Rain = 0
KSB1 051009Z 02005KT 22/15 A301 RMK A01 T02240151  RH  064%=      5-min Rain = 0
KSB1 051010Z 02005KT 22/15 A301 RMK A01 T02230151  RH  064%=      5-min Rain = 0
KSB1 051011Z 02004KT 22/15 A301 RMK A01 T02240151  RH  063%=      5-min Rain = 0
KSB1 051012Z 01005KT 22/15 A301 RMK A01 T02240151  RH  063%=      5-min Rain = 0
KSB1 051013Z 01005KT 23/15 A301 RMK A01 T02250151  RH  063%=      5-min Rain = 0
KSB1 051014Z 01005KT 23/15 A301 RMK A01 T02250151  RH  063%=      5-min Rain = 0
KSB1 051015Z 01005KT 23/15 A301 RMK A01 T02250150  RH  063%=      5-min Rain = 0
KSB1 051016Z 01005KT 23/15 A301 RMK A01 T02260150  RH  062%=      5-min Rain = 0
KSB1 051017Z 01005KT 23/15 A301 RMK A01 T02260150  RH  062%=      5-min Rain = 0
KSB1 051018Z 01005KT 23/15 A301 RMK A01 T02260150  RH  062%=      5-min Rain = 0
KSB1 051019Z 01005KT 23/15 A301 RMK A01 T02270150  RH  062%=      5-min Rain = 0
KSB1 051020Z 01005KT 23/15 A301 RMK A01 T02270150  RH  062%=      5-min Rain = 0
KSB1 051021Z 02005KT 23/15 A301 RMK A01 T02270149  RH  061%=      5-min Rain = 0
KSB1 051022Z 01005KT 23/15 A301 RMK A01 T02270148  RH  061%=      5-min Rain = 0
KSB1 051023Z 01004KT 23/15 A301 RMK A01 T02270148  RH  061%=      5-min Rain = 0
KSB1 051024Z 01004KT 23/15 A301 RMK A01 T02270147  RH  061%=      5-min Rain = 0
KSB1 051025Z 02004KT 23/15 A3009 RMK A01 T02270146  RH  060%=      5-min Rain = 0
KSB1 051026Z 00003KT 23/15 A3009 RMK A01 T02270146  RH  060%=      5-min Rain = 0
KSB1 051027Z 35003KT 23/15 A3009 RMK A01 T02270145  RH  060%=      5-min Rain = 0
KSB1 051028Z 34003KT 23/14 A301 RMK A01 T02270144  RH  060%=      5-min Rain = 0
KSB1 051029Z 33003KT 23/14 A301 RMK A01 T02270144  RH  059%=      5-min Rain = 0
KSB1 051030Z 32003KT 23/14 A301 RMK A01 T02270143  RH  059%=      5-min Rain = 0
KSB1 051031Z 33003KT 23/14 A3009 RMK A01 T02270142  RH  059%=      5-min Rain = 0
KSB1 051032Z 34003KT 23/14 A3009 RMK A01 T02270142  RH  059%=      5-min Rain = 0
KSB1 051033Z 35003KT 23/14 A3009 RMK A01 T02280143  RH  059%=      5-min Rain = 0
KSB1 051034Z 34003KT 23/14 A3009 RMK A01 T02300144  RH  058%=      5-min Rain = 0
KSB1 051035Z 33003KT 23/14 A301 RMK A01 T02310144  RH  058%=      5-min Rain = 0
KSB1 051036Z 33004KT 23/14 A301 RMK A01 T02320144  RH  058%=      5-min Rain = 0
KSB1 051037Z 33004KT 23/14 A301 RMK A01 T02330144  RH  057%=      5-min Rain = 0
KSB1 051038Z 33005KT 23/14 A301 RMK A01 T02330144  RH  057%=      5-min Rain = 0
KSB1 051039Z 33005KT 23/14 A301 RMK A01 T02330144  RH  057%=      5-min Rain = 0
KSB1 051040Z 33005KT 23/14 A301 RMK A01 T02340144  RH  057%=      5-min Rain = 0
KSB1 051041Z 33005KT 23/14 A301 RMK A01 T02340144  RH  057%=      5-min Rain = 0
KSB1 051042Z 33006KT 23/14 A301 RMK A01 T02340144  RH  057%=      5-min Rain = 0
KSB1 051043Z 33006KT 24/15 A3009 RMK A01 T02350145  RH  057%=      5-min Rain = 0
KSB1 051044Z 33006KT 23/15 A3009 RMK A01 T02340145  RH  057%=      5-min Rain = 0
KSB1 051045Z 33006KT 23/15 A3009 RMK A01 T02330146  RH  058%=      5-min Rain = 0
KSB1 051046Z 33006KT 23/15 A3009 RMK A01 T02330146  RH  058%=      5-min Rain = 0
KSB1 051047Z 33006KT 23/15 A3009 RMK A01 T02330146  RH  058%=      5-min Rain = 0
KSB1 051048Z 33006KT 23/15 A3009 RMK A01 T02330146  RH  058%=      5-min Rain = 0
KSB1 051049Z 33006KT 23/15 A3009 RMK A01 T02330146  RH  058%=      5-min Rain = 0
KSB1 051050Z 33006KT 23/15 A3009 RMK A01 T02330146  RH  058%=      5-min Rain = 0
KSB1 051051Z 34005KT 23/15 A3009 RMK A01 T02330146  RH  058%=      5-min Rain = 0
KSB1 051052Z 34005KT 23/15 A3009 RMK A01 T02330146  RH  058%=      5-min Rain = 0
KSB1 051053Z 35005KT 23/15 A3009 RMK A01 T02330146  RH  058%=      5-min Rain = 0
KSB1 051054Z 35005KT 23/15 A3009 RMK A01 T02330146  RH  058%=      5-min Rain = 0
KSB1 051055Z 35006KT 23/15 A3009 RMK A01 T02320145  RH  058%=      5-min Rain = 0
KSB1 051056Z 36006KT 23/15 A3009 RMK A01 T02310145  RH  058%=      5-min Rain = 0
KSB1 051057Z 35006KT 23/15 A3009 RMK A01 T02310145  RH  058%=      5-min Rain = 0
KSB1 051058Z 35006KT 23/15 A3009 RMK A01 T02310145  RH  058%=      5-min Rain = 0
KSB1 051059Z 36006KT 23/14 A3009 RMK A01 T02300144  RH  058%=      5-min Rain = 0
KSB1 051100Z 36006KT 23/14 A3009 RMK A01 T02300144  RH  059%=      5-min Rain = 0
KSB1 051101Z 36005KT 23/14 A3009 RMK A01 T02290144  RH  059%=      5-min Rain = 0
KSB1 051102Z 00006KT 23/14 A3009 RMK A01 T02290144  RH  059%=      5-min Rain = 0
KSB1 051103Z 36005KT 23/14 A3009 RMK A01 T02290143  RH  058%=      5-min Rain = 0
KSB1 051104Z 36006KT 23/14 A3009 RMK A01 T02290142  RH  058%=      5-min Rain = 0
KSB1 051105Z 35005KT 23/14 A3009 RMK A01 T02300142  RH  058%=      5-min Rain = 0
KSB1 051106Z 35005KT 23/14 A3009 RMK A01 T02300142  RH  057%=      5-min Rain = 0
KSB1 051107Z 35006KT 23/14 A3009 RMK A01 T02310141  RH  057%=      5-min Rain = 0
KSB1 051108Z 35006KT 23/14 A301 RMK A01 T02300141  RH  057%=      5-min Rain = 0
KSB1 051109Z 35006KT 23/14 A301 RMK A01 T02310141  RH  057%=      5-min Rain = 0
KSB1 051110Z 35006KT 23/14 A301 RMK A01 T02300140  RH  057%=      5-min Rain = 0
KSB1 051111Z 35006KT 23/14 A301 RMK A01 T02310139  RH  056%=      5-min Rain = 0
KSB1 051112Z 35007KT 23/14 A3009 RMK A01 T02310139  RH  056%=      5-min Rain = 0
KSB1 051113Z 00007KT 23/14 A3009 RMK A01 T02310138  RH  056%=      5-min Rain = 0
KSB1 051114Z 00007KT 23/14 A3009 RMK A01 T02310138  RH  056%=      5-min Rain = 0
KSB1 051115Z 01007KT 23/14 A3009 RMK A01 T02320137  RH  055%=      5-min Rain = 0
KSB1 051116Z 01008KT 23/14 A3009 RMK A01 T02320137  RH  055%=      5-min Rain = 0
KSB1 051117Z 01008KT 23/14 A301 RMK A01 T02330136  RH  054%=      5-min Rain = 0
KSB1 051118Z 01008KT 23/14 A301 RMK A01 T02330136  RH  054%=      5-min Rain = 0
KSB1 051119Z 01007KT 23/14 A301 RMK A01 T02330136  RH  054%=      5-min Rain = 0
KSB1 051120Z 02006KT 23/14 A301 RMK A01 T02330136  RH  054%=      5-min Rain = 0
KSB1 051121Z 02006KT 23/14 A301 RMK A01 T02320136  RH  055%=      5-min Rain = 0
KSB1 051122Z 01005KT 23/14 A301 RMK A01 T02320136  RH  055%=      5-min Rain = 0
KSB1 051123Z 00004KT 23/14 A301 RMK A01 T02310136  RH  055%=      5-min Rain = 0
KSB1 051124Z 35004KT 23/14 A301 RMK A01 T02310136  RH  055%=      5-min Rain = 0
KSB1 051125Z 34004KT 23/14 A301 RMK A01 T02310136  RH  055%=      5-min Rain = 0
KSB1 051126Z 34004KT 23/14 A301 RMK A01 T02300137  RH  056%=      5-min Rain = 0
KSB1 051127Z 34005KT 23/14 A301 RMK A01 T02290137  RH  056%=      5-min Rain = 0
KSB1 051128Z 33005KT 23/14 A301 RMK A01 T02280137  RH  056%=      5-min Rain = 0
KSB1 051129Z 33006KT 23/14 A301 RMK A01 T02280137  RH  056%=      5-min Rain = 0
KSB1 051130Z 33005KT 23/14 A301 RMK A01 T02280136  RH  056%=      5-min Rain = 0
KSB1 051131Z 33005KT 23/14 A301 RMK A01 T02300136  RH  056%=      5-min Rain = 0
KSB1 051132Z 34005KT 23/14 A301 RMK A01 T02310136  RH  055%=      5-min Rain = 0
KSB1 051133Z 33004KT 23/14 A301 RMK A01 T02320136  RH  055%=      5-min Rain = 0
KSB1 051134Z 33004KT 23/14 A301 RMK A01 T02330136  RH  054%=      5-min Rain = 0
KSB1 051135Z 34005KT 23/14 A3011 RMK A01 T02330136  RH  054%=      5-min Rain = 0
KSB1 051136Z 35004KT 23/14 A3011 RMK A01 T02330135  RH  054%=      5-min Rain = 0
KSB1 051137Z 36004KT 23/14 A3011 RMK A01 T02330135  RH  054%=      5-min Rain = 0
KSB1 051138Z 36004KT 23/13 A3011 RMK A01 T02330134  RH  054%=      5-min Rain = 0
KSB1 051139Z 02003KT 23/13 A3011 RMK A01 T02330134  RH  054%=      5-min Rain = 0
KSB1 051140Z 01003KT 23/13 A3011 RMK A01 T02330134  RH  054%=      5-min Rain = 0
KSB1 051141Z 02003KT 23/13 A3011 RMK A01 T02330134  RH  054%=      5-min Rain = 0
KSB1 051142Z 01003KT 23/13 A3011 RMK A01 T02330134  RH  054%=      5-min Rain = 0
KSB1 051143Z 01002KT 23/13 A3011 RMK A01 T02330134  RH  054%=      5-min Rain = 0
KSB1 051144Z 02002KT 23/13 A3011 RMK A01 T02320133  RH  054%=      5-min Rain = 0
KSB1 051145Z 02002KT 23/13 A3011 RMK A01 T02320133  RH  054%=      5-min Rain = 0
KSB1 051146Z 03001KT 23/13 A3011 RMK A01 T02320134  RH  054%=      5-min Rain = 0
KSB1 051147Z 03000KT 23/13 A3011 RMK A01 T02320134  RH  054%=      5-min Rain = 0
KSB1 051148Z 00000KT 23/13 A3011 RMK A01 T02300134  RH  054%=      5-min Rain = 0
KSB1 051149Z 01001KT 23/13 A3011 RMK A01 T02280133  RH  055%=      5-min Rain = 0
KSB1 051150Z 00000KT 23/13 A3011 RMK A01 T02270134  RH  056%=      5-min Rain = 0
KSB1 051151Z 36000KT 23/13 A3011 RMK A01 T02250133  RH  056%=      5-min Rain = 0
KSB1 051152Z 35000KT 23/13 A3011 RMK A01 T02250134  RH  056%=      5-min Rain = 0
KSB1 051153Z 30001KT 23/13 A3011 RMK A01 T02250134  RH  056%=      5-min Rain = 0
KSB1 051154Z 32002KT 22/13 A3011 RMK A01 T02240133  RH  056%=      5-min Rain = 0
KSB1 051155Z 31002KT 22/13 A3011 RMK A01 T02240133  RH  057%=      5-min Rain = 0
KSB1 051156Z 29001KT 22/13 A3011 RMK A01 T02220133  RH  057%=      5-min Rain = 0
KSB1 051157Z 25001KT 22/13 A3011 RMK A01 T02190130  RH  057%=      5-min Rain = 0
KSB1 051158Z 23002KT 22/13 A3011 RMK A01 T02160129  RH  057%=      5-min Rain = 0
KSB1 051159Z 21002KT 22/13 A3011 RMK A01 T02150129  RH  058%=      5-min Rain = 0
KSB1 051200Z 20003KT 21/13 A3011 RMK A01 T02120128  RH  059%=      5-min Rain = 0
KSB1 051201Z 19004KT 21/13 A3011 RMK A01 T02100129  RH  060%=      5-min Rain = 0
KSB1 051202Z 19004KT 21/13 A3011 RMK A01 T02090130  RH  061%=      5-min Rain = 0
KSB1 051203Z 19004KT 21/13 A3011 RMK A01 T02080130  RH  061%=      5-min Rain = 0
KSB1 051204Z 19003KT 21/13 A3011 RMK A01 T02070130  RH  061%=      5-min Rain = 0
KSB1 051205Z 18002KT 21/13 A3011 RMK A01 T02070131  RH  062%=      5-min Rain = 0
KSB1 051206Z 19001KT 21/13 A3011 RMK A01 T02070132  RH  062%=      5-min Rain = 0
KSB1 051207Z 19001KT 21/13 A3011 RMK A01 T02070133  RH  062%=      5-min Rain = 0
KSB1 051208Z 20002KT 21/13 A3011 RMK A01 T02070133  RH  063%=      5-min Rain = 0
KSB1 051209Z 20001KT 21/13 A3011 RMK A01 T02070133  RH  062%=      5-min Rain = 0
KSB1 051210Z 21001KT 21/13 A3011 RMK A01 T02070132  RH  062%=      5-min Rain = 0
KSB1 051211Z 22001KT 21/13 A3011 RMK A01 T02080132  RH  062%=      5-min Rain = 0
KSB1 051212Z 24001KT 21/13 A3011 RMK A01 T02090131  RH  061%=      5-min Rain = 0
KSB1 051213Z 26001KT 21/13 A3011 RMK A01 T02100129  RH  060%=      5-min Rain = 0
KSB1 051214Z 28001KT 21/13 A3011 RMK A01 T02110128  RH  059%=      5-min Rain = 0
KSB1 051215Z 27001KT 21/13 A3011 RMK A01 T02110127  RH  059%=      5-min Rain = 0
KSB1 051216Z 28001KT 21/13 A3011 RMK A01 T02120127  RH  058%=      5-min Rain = 0
KSB1 051217Z 32002KT 21/13 A3011 RMK A01 T02120127  RH  058%=      5-min Rain = 0
KSB1 051218Z 33002KT 21/13 A3011 RMK A01 T02120127  RH  058%=      5-min Rain = 0
KSB1 051219Z 35002KT 21/13 A3011 RMK A01 T02130127  RH  058%=      5-min Rain = 0
KSB1 051220Z 34001KT 22/13 A3011 RMK A01 T02150127  RH  057%=      5-min Rain = 0
KSB1 051221Z 32001KT 22/13 A3011 RMK A01 T02160128  RH  057%=      5-min Rain = 0
KSB1 051222Z 32002KT 22/13 A3011 RMK A01 T02180128  RH  057%=      5-min Rain = 0
KSB1 051223Z 32002KT 22/13 A3011 RMK A01 T02190128  RH  056%=      5-min Rain = 0
KSB1 051224Z 32002KT 22/13 A3011 RMK A01 T02200127  RH  055%=      5-min Rain = 0
KSB1 051225Z 30002KT 22/13 A3011 RMK A01 T02220128  RH  055%=      5-min Rain = 0
KSB1 051226Z 30001KT 22/13 A3011 RMK A01 T02220129  RH  055%=      5-min Rain = 0
KSB1 051227Z 30001KT 22/13 A3011 RMK A01 T02220128  RH  055%=      5-min Rain = 0
KSB1 051228Z 28000KT 22/13 A3011 RMK A01 T02220128  RH  055%=      5-min Rain = 0
KSB1 051229Z 23001KT 22/13 A3011 RMK A01 T02230127  RH  055%=      5-min Rain = 0
KSB1 051230Z 25001KT 22/13 A3011 RMK A01 T02240128  RH  055%=      5-min Rain = 0
KSB1 051231Z 26001KT 22/13 A3011 RMK A01 T02230128  RH  055%=      5-min Rain = 0
KSB1 051232Z 26003KT 22/13 A3011 RMK A01 T02210127  RH  055%=      5-min Rain = 0
KSB1 051233Z 27004KT 22/13 A3011 RMK A01 T02180126  RH  056%=      5-min Rain = 0
KSB1 051234Z 27003KT 22/13 A3011 RMK A01 T02170127  RH  057%=      5-min Rain = 0
KSB1 051235Z 27002KT 22/13 A3011 RMK A01 T02160128  RH  057%=      5-min Rain = 0
KSB1 051236Z 31002KT 22/13 A3011 RMK A01 T02160128  RH  057%=      5-min Rain = 0
KSB1 051237Z 29001KT 22/13 A3011 RMK A01 T02160130  RH  058%=      5-min Rain = 0
KSB1 051238Z 28001KT 22/13 A3011 RMK A01 T02170130  RH  058%=      5-min Rain = 0
KSB1 051239Z 28002KT 22/13 A3011 RMK A01 T02190130  RH  057%=      5-min Rain = 0
KSB1 051240Z 27002KT 22/13 A3011 RMK A01 T02200130  RH  057%=      5-min Rain = 0
KSB1 051241Z 26003KT 22/13 A3011 RMK A01 T02220130  RH  056%=      5-min Rain = 0
KSB1 051242Z 27003KT 22/13 A3011 RMK A01 T02230130  RH  056%=      5-min Rain = 0
KSB1 051243Z 27003KT 22/13 A3011 RMK A01 T02230130  RH  056%=      5-min Rain = 0
KSB1 051244Z 26002KT 22/13 A3011 RMK A01 T02240131  RH  055%=      5-min Rain = 0
KSB1 051245Z 27003KT 23/13 A3011 RMK A01 T02250131  RH  055%=      5-min Rain = 0
KSB1 051246Z 28003KT 23/13 A3011 RMK A01 T02260131  RH  055%=      5-min Rain = 0
KSB1 051247Z 29004KT 23/13 A3011 RMK A01 T02260131  RH  055%=      5-min Rain = 0
KSB1 051248Z 29004KT 23/13 A3011 RMK A01 T02280131  RH  054%=      5-min Rain = 0
KSB1 051249Z 29004KT 23/13 A3011 RMK A01 T02280130  RH  054%=      5-min Rain = 0
KSB1 051250Z 29004KT 23/13 A3011 RMK A01 T02300130  RH  053%=      5-min Rain = 0
KSB1 051251Z 29003KT 23/13 A3011 RMK A01 T02310130  RH  053%=      5-min Rain = 0
KSB1 051252Z 29003KT 23/13 A3011 RMK A01 T02320130  RH  052%=      5-min Rain = 0
KSB1 051253Z 29003KT 23/13 A3011 RMK A01 T02340129  RH  052%=      5-min Rain = 0
KSB1 051254Z 29003KT 24/13 A3011 RMK A01 T02350130  RH  052%=      5-min Rain = 0
KSB1 051255Z 29003KT 24/13 A3011 RMK A01 T02370130  RH  051%=      5-min Rain = 0
KSB1 051256Z 29002KT 24/13 A3011 RMK A01 T02380129  RH  051%=      5-min Rain = 0
KSB1 051257Z 30001KT 24/13 A3011 RMK A01 T02390129  RH  050%=      5-min Rain = 0
KSB1 051258Z 31001KT 24/13 A3011 RMK A01 T02400129  RH  050%=      5-min Rain = 0
KSB1 051259Z 32001KT 24/13 A3011 RMK A01 T02410129  RH  049%=      5-min Rain = 0
KSB1 051300Z 34000KT 24/13 A3011 RMK A01 T02430129  RH  049%=      5-min Rain = 0
KSB1 051301Z 00001KT 24/13 A3011 RMK A01 T02440129  RH  049%=      5-min Rain = 0
KSB1 051302Z 00001KT 25/13 A3011 RMK A01 T02450127  RH  048%=      5-min Rain = 0
KSB1 051303Z 36001KT 25/12 A3011 RMK A01 T02470124  RH  046%=      5-min Rain = 0
KSB1 051304Z 35001KT 25/12 A3011 RMK A01 T02480124  RH  046%=      5-min Rain = 0
KSB1 051305Z 34000KT 25/12 A3011 RMK A01 T02500124  RH  045%=      5-min Rain = 0
KSB1 051306Z 34000KT 25/12 A3011 RMK A01 T02510124  RH  045%=      5-min Rain = 0
KSB1 051307Z 00000KT 25/13 A3011 RMK A01 T02520126  RH  045%=      5-min Rain = 0
KSB1 051308Z 00000KT 25/13 A3011 RMK A01 T02530128  RH  046%=      5-min Rain = 0
KSB1 051309Z 02000KT 25/13 A3011 RMK A01 T02530129  RH  046%=      5-min Rain = 0
KSB1 051310Z 04002KT 25/13 A3011 RMK A01 T02530126  RH  045%=      5-min Rain = 0
KSB1 051311Z 04001KT 25/12 A3011 RMK A01 T02530124  RH  045%=      5-min Rain = 0
KSB1 051312Z 04002KT 25/13 A3011 RMK A01 T02540125  RH  045%=      5-min Rain = 0
KSB1 051313Z 04002KT 25/13 A3011 RMK A01 T02540126  RH  045%=      5-min Rain = 0
KSB1 051314Z 04002KT 25/13 A3011 RMK A01 T02540126  RH  045%=      5-min Rain = 0
KSB1 051315Z 04002KT 26/13 A3011 RMK A01 T02550127  RH  045%=      5-min Rain = 0
KSB1 051316Z 04002KT 26/13 A3012 RMK A01 T02550128  RH  045%=      5-min Rain = 0
KSB1 051317Z 05002KT 26/13 A3012 RMK A01 T02550129  RH  045%=      5-min Rain = 0
KSB1 051318Z 05003KT 26/13 A3012 RMK A01 T02550127  RH  045%=      5-min Rain = 0
KSB1 051319Z 05003KT 26/13 A3012 RMK A01 T02550128  RH  045%=      5-min Rain = 0
KSB1 051320Z 05003KT 25/13 A3012 RMK A01 T02540129  RH  046%=      5-min Rain = 0
KSB1 051321Z 05003KT 26/13 A3012 RMK A01 T02550127  RH  045%=      5-min Rain = 0
KSB1 051322Z 04003KT 26/13 A3012 RMK A01 T02550127  RH  045%=      5-min Rain = 0
KSB1 051323Z 04003KT 25/13 A3012 RMK A01 T02540129  RH  046%=      5-min Rain = 0
KSB1 051324Z 03003KT 25/13 A3012 RMK A01 T02540128  RH  045%=      5-min Rain = 0
KSB1 051325Z 03002KT 25/13 A3012 RMK A01 T02540127  RH  045%=      5-min Rain = 0
KSB1 051326Z 02002KT 26/13 A3012 RMK A01 T02550126  RH  045%=      5-min Rain = 0
KSB1 051327Z 02002KT 26/13 A3012 RMK A01 T02550126  RH  045%=      5-min Rain = 0
KSB1 051328Z 02002KT 26/13 A3012 RMK A01 T02550125  RH  044%=      5-min Rain = 0
KSB1 051329Z 02003KT 26/13 A3012 RMK A01 T02560125  RH  044%=      5-min Rain = 0
KSB1 051330Z 03003KT 26/13 A3012 RMK A01 T02560125  RH  044%=      5-min Rain = 0
KSB1 051331Z 04002KT 26/13 A3012 RMK A01 T02580125  RH  044%=      5-min Rain = 0
KSB1 051332Z 04003KT 26/12 A3012 RMK A01 T02580124  RH  043%=      5-min Rain = 0
KSB1 051333Z 05003KT 26/13 A3012 RMK A01 T02590126  RH  043%=      5-min Rain = 0
KSB1 051334Z 04004KT 26/13 A3012 RMK A01 T02610125  RH  043%=      5-min Rain = 0
KSB1 051335Z 04005KT 26/12 A3012 RMK A01 T02610124  RH  043%=      5-min Rain = 0
KSB1 051336Z 04004KT 26/13 A3012 RMK A01 T02600125  RH  043%=      5-min Rain = 0
KSB1 051337Z 04004KT 26/13 A3012 RMK A01 T02600126  RH  043%=      5-min Rain = 0
KSB1 051338Z 03005KT 26/13 A3012 RMK A01 T02600127  RH  044%=      5-min Rain = 0
KSB1 051339Z 03006KT 26/13 A3012 RMK A01 T02610127  RH  044%=      5-min Rain = 0
KSB1 051340Z 02005KT 26/13 A3012 RMK A01 T02600128  RH  044%=      5-min Rain = 0
KSB1 051341Z 03004KT 26/13 A3012 RMK A01 T02580129  RH  045%=      5-min Rain = 0
KSB1 051342Z 03005KT 26/13 A3012 RMK A01 T02580129  RH  045%=      5-min Rain = 0
KSB1 051343Z 03005KT 26/13 A3012 RMK A01 T02580128  RH  045%=      5-min Rain = 0
KSB1 051344Z 02004KT 26/13 A3012 RMK A01 T02570129  RH  045%=      5-min Rain = 0
KSB1 051345Z 03004KT 26/13 A3012 RMK A01 T02590130  RH  045%=      5-min Rain = 0
KSB1 051346Z 03005KT 26/13 A3012 RMK A01 T02610129  RH  044%=      5-min Rain = 0
KSB1 051347Z 03005KT 26/13 A3012 RMK A01 T02630129  RH  043%=      5-min Rain = 0
KSB1 051348Z 02004KT 26/13 A3012 RMK A01 T02630129  RH  043%=      5-min Rain = 0
KSB1 051349Z 01005KT 26/13 A3012 RMK A01 T02640130  RH  043%=      5-min Rain = 0
KSB1 051350Z 01005KT 27/13 A3012 RMK A01 T02650128  RH  043%=      5-min Rain = 0
KSB1 051351Z 02005KT 27/13 A3012 RMK A01 T02650128  RH  043%=      5-min Rain = 0
KSB1 051352Z 02005KT 27/13 A3012 RMK A01 T02650129  RH  043%=      5-min Rain = 0
KSB1 051353Z 00006KT 27/13 A3012 RMK A01 T02660128  RH  042%=      5-min Rain = 0
KSB1 051354Z 03005KT 27/13 A3012 RMK A01 T02660127  RH  042%=      5-min Rain = 0
KSB1 051355Z 02006KT 27/13 A3012 RMK A01 T02670126  RH  042%=      5-min Rain = 0
KSB1 051356Z 02006KT 27/13 A3012 RMK A01 T02680127  RH  042%=      5-min Rain = 0
KSB1 051357Z 03008KT 27/13 A3012 RMK A01 T02690126  RH  041%=      5-min Rain = 0
KSB1 051358Z 03008KT 27/13 A3012 RMK A01 T02690127  RH  041%=      5-min Rain = 0
KSB1 051359Z 03007KT 27/13 A3012 RMK A01 T02690127  RH  041%=      5-min Rain = 0
KSB1 051400Z 05007KT 27/13 A3012 RMK A01 T02690127  RH  041%=      5-min Rain = 0
KSB1 051401Z 03007KT 27/13 A3012 RMK A01 T02700127  RH  041%=      5-min Rain = 0
KSB1 051402Z 04007KT 27/13 A3012 RMK A01 T02710128  RH  041%=      5-min Rain = 0
KSB1 051403Z 04007KT 27/13 A3012 RMK A01 T02710128  RH  041%=      5-min Rain = 0
KSB1 051404Z 05010KT 27/13 A3012 RMK A01 T02720127  RH  041%=      5-min Rain = 0
KSB1 051405Z 04010KT 27/13 A3012 RMK A01 T02710126  RH  041%=      5-min Rain = 0
KSB1 051406Z 04009KT 27/13 A3012 RMK A01 T02700126  RH  041%=      5-min Rain = 0
KSB1 051407Z 04009KT 27/13 A3013 RMK A01 T02700125  RH  041%=      5-min Rain = 0
KSB1 051408Z 04008KT 27/13 A3013 RMK A01 T02690126  RH  041%=      5-min Rain = 0
KSB1 051409Z 04008KT 27/13 A3013 RMK A01 T02690126  RH  041%=      5-min Rain = 0
KSB1 051410Z 03008KT 27/13 A3013 RMK A01 T02700126  RH  041%=      5-min Rain = 0
KSB1 051411Z 03008KT 27/13 A3013 RMK A01 T02700126  RH  041%=      5-min Rain = 0
KSB1 051412Z 03008KT 27/13 A3013 RMK A01 T02710126  RH  041%=      5-min Rain = 0
KSB1 051413Z 03008KT 27/13 A3013 RMK A01 T02700127  RH  041%=      5-min Rain = 0
KSB1 051414Z 03008KT 27/13 A3013 RMK A01 T02690127  RH  041%=      5-min Rain = 0
KSB1 051415Z 03007KT 27/13 A3013 RMK A01 T02700128  RH  041%=      5-min Rain = 0
KSB1 051416Z 05008KT 27/13 A3013 RMK A01 T02710128  RH  041%=      5-min Rain = 0
KSB1 051417Z 04008KT 27/13 A3013 RMK A01 T02730127  RH  041%=      5-min Rain = 0
KSB1 051418Z 04008KT 27/13 A3013 RMK A01 T02730128  RH  041%=      5-min Rain = 0
KSB1 051419Z 06009KT 27/13 A3013 RMK A01 T02740129  RH  041%=      5-min Rain = 0
KSB1 051420Z 04008KT 28/13 A3013 RMK A01 T02760129  RH  040%=      5-min Rain = 0
KSB1 051421Z 03007KT 28/13 A3013 RMK A01 T02770130  RH  040%=      5-min Rain = 0
KSB1 051422Z 03007KT 28/13 A3013 RMK A01 T02760130  RH  040%=      5-min Rain = 0
KSB1 051423Z 04008KT 28/13 A3013 RMK A01 T02760130  RH  040%=      5-min Rain = 0
KSB1 051424Z 04007KT 28/13 A3013 RMK A01 T02760130  RH  040%=      5-min Rain = 0
KSB1 051425Z 05007KT 28/13 A3013 RMK A01 T02770130  RH  040%=      5-min Rain = 0
KSB1 051426Z 04008KT 28/13 A3013 RMK A01 T02780129  RH  040%=      5-min Rain = 0
KSB1 051427Z 05007KT 28/13 A3013 RMK A01 T02770129  RH  040%=      5-min Rain = 0
KSB1 051428Z 04007KT 28/13 A3013 RMK A01 T02750130  RH  041%=      5-min Rain = 0
KSB1 051429Z 05008KT 28/13 A3013 RMK A01 T02750131  RH  041%=      5-min Rain = 0
KSB1 051430Z 04008KT 28/13 A3013 RMK A01 T02750131  RH  041%=      5-min Rain = 0
KSB1 051431Z 05009KT 27/13 A3013 RMK A01 T02740132  RH  042%=      5-min Rain = 0
KSB1 051432Z 06008KT 27/13 A3013 RMK A01 T02730132  RH  042%=      5-min Rain = 0
KSB1 051433Z 06008KT 28/13 A3013 RMK A01 T02750131  RH  041%=      5-min Rain = 0
KSB1 051434Z 05008KT 28/13 A3013 RMK A01 T02750131  RH  041%=      5-min Rain = 0
KSB1 051435Z 04007KT 28/13 A3013 RMK A01 T02760131  RH  041%=      5-min Rain = 0
KSB1 051436Z 05007KT 28/13 A3013 RMK A01 T02760131  RH  041%=      5-min Rain = 0
KSB1 051437Z 05007KT 28/13 A3013 RMK A01 T02770132  RH  041%=      5-min Rain = 0
KSB1 051438Z 05007KT 28/13 A3013 RMK A01 T02780132  RH  041%=      5-min Rain = 0
KSB1 051439Z 04005KT 28/13 A3013 RMK A01 T02780132  RH  041%=      5-min Rain = 0
KSB1 051440Z 04007KT 28/13 A3013 RMK A01 T02780131  RH  040%=      5-min Rain = 0
KSB1 051441Z 05007KT 28/13 A3013 RMK A01 T02780132  RH  040%=      5-min Rain = 0
KSB1 051442Z 04007KT 28/13 A3013 RMK A01 T02770131  RH  040%=      5-min Rain = 0
KSB1 051443Z 05007KT 28/13 A3013 RMK A01 T02760130  RH  041%=      5-min Rain = 0
KSB1 051444Z 04007KT 28/13 A3013 RMK A01 T02750130  RH  041%=      5-min Rain = 0
KSB1 051445Z 04006KT 27/13 A3013 RMK A01 T02740130  RH  041%=      5-min Rain = 0
KSB1 051446Z 04006KT 28/13 A3013 RMK A01 T02750131  RH  041%=      5-min Rain = 0
KSB1 051447Z 03005KT 27/13 A3013 RMK A01 T02740132  RH  041%=      5-min Rain = 0
KSB1 051448Z 03005KT 28/13 A3013 RMK A01 T02750131  RH  041%=      5-min Rain = 0
KSB1 051449Z 05006KT 28/13 A3013 RMK A01 T02780131  RH  040%=      5-min Rain = 0
KSB1 051450Z 05005KT 28/13 A3013 RMK A01 T02790132  RH  040%=      5-min Rain = 0
KSB1 051451Z 05006KT 28/13 A3013 RMK A01 T02780132  RH  041%=      5-min Rain = 0
KSB1 051452Z 04006KT 28/13 A3013 RMK A01 T02770132  RH  041%=      5-min Rain = 0
KSB1 051453Z 03005KT 28/13 A3013 RMK A01 T02760133  RH  041%=      5-min Rain = 0
KSB1 051454Z 04006KT 28/13 A3013 RMK A01 T02770134  RH  041%=      5-min Rain = 0
KSB1 051455Z 03005KT 28/13 A3013 RMK A01 T02770134  RH  041%=      5-min Rain = 0
KSB1 051456Z 06005KT 28/13 A3013 RMK A01 T02760133  RH  041%=      5-min Rain = 0
KSB1 051457Z 08006KT 28/13 A3013 RMK A01 T02760133  RH  041%=      5-min Rain = 0
KSB1 051458Z 08005KT 28/13 A3013 RMK A01 T02750133  RH  042%=      5-min Rain = 0
KSB1 051459Z 08006KT 27/13 A3013 RMK A01 T02740133  RH  042%=      5-min Rain = 0
KSB1 051500Z 07005KT 27/13 A3013 RMK A01 T02740134  RH  042%=      5-min Rain = 0
KSB1 051501Z 06006KT 28/13 A3013 RMK A01 T02750134  RH  042%=      5-min Rain = 0
KSB1 051502Z 08006KT 28/13 A3013 RMK A01 T02760134  RH  042%=      5-min Rain = 0
KSB1 051503Z 07005KT 28/13 A3013 RMK A01 T02760134  RH  042%=      5-min Rain = 0
KSB1 051504Z 07005KT 28/13 A3013 RMK A01 T02770133  RH  041%=      5-min Rain = 0
KSB1 051505Z 07006KT 28/13 A3013 RMK A01 T02770133  RH  041%=      5-min Rain = 0
KSB1 051506Z 06006KT 28/13 A3013 RMK A01 T02770134  RH  041%=      5-min Rain = 0
KSB1 051507Z 05005KT 28/14 A3013 RMK A01 T02770135  RH  042%=      5-min Rain = 0
KSB1 051508Z 06005KT 28/13 A3013 RMK A01 T02760134  RH  042%=      5-min Rain = 0
KSB1 051509Z 06005KT 28/13 A3013 RMK A01 T02750133  RH  042%=      5-min Rain = 0
KSB1 051510Z 06005KT 28/13 A3013 RMK A01 T02750132  RH  041%=      5-min Rain = 0
KSB1 051511Z 07005KT 28/13 A3013 RMK A01 T02750132  RH  041%=      5-min Rain = 0
KSB1 051512Z 06004KT 28/13 A3013 RMK A01 T02760132  RH  041%=      5-min Rain = 0
KSB1 051513Z 06004KT 28/13 A3013 RMK A01 T02760131  RH  041%=      5-min Rain = 0
KSB1 051514Z 06004KT 28/13 A3013 RMK A01 T02770132  RH  041%=      5-min Rain = 0
KSB1 051515Z 06003KT 28/13 A3013 RMK A01 T02790131  RH  040%=      5-min Rain = 0
KSB1 051516Z 08004KT 28/13 A3013 RMK A01 T02800131  RH  040%=      5-min Rain = 0
KSB1 051517Z 08004KT 28/13 A3012 RMK A01 T02790131  RH  040%=      5-min Rain = 0
KSB1 051518Z 06005KT 28/13 A3012 RMK A01 T02790132  RH  040%=      5-min Rain = 0
KSB1 051519Z 06004KT 28/13 A3012 RMK A01 T02810133  RH  040%=      5-min Rain = 0
KSB1 051520Z 05004KT 28/13 A3012 RMK A01 T02820133  RH  040%=      5-min Rain = 0
KSB1 051521Z 06003KT 28/13 A3012 RMK A01 T02820132  RH  040%=      5-min Rain = 0
KSB1 051522Z 07003KT 28/13 A3012 RMK A01 T02830132  RH  040%=      5-min Rain = 0
KSB1 051523Z 08002KT 28/13 A3012 RMK A01 T02820131  RH  039%=      5-min Rain = 0
KSB1 051524Z 07002KT 28/13 A3012 RMK A01 T02810131  RH  040%=      5-min Rain = 0
KSB1 051525Z 09003KT 28/13 A3012 RMK A01 T02810131  RH  040%=      5-min Rain = 0
KSB1 051526Z 10004KT 28/13 A3012 RMK A01 T02840133  RH  039%=      5-min Rain = 0
KSB1 051527Z 11004KT 29/13 A3012 RMK A01 T02850132  RH  039%=      5-min Rain = 0
KSB1 051528Z 12003KT 28/13 A3012 RMK A01 T02830130  RH  039%=      5-min Rain = 0
KSB1 051529Z 12004KT 28/13 A3012 RMK A01 T02820129  RH  039%=      5-min Rain = 0
KSB1 051530Z 12003KT 28/13 A3012 RMK A01 T02820128  RH  039%=      5-min Rain = 0
KSB1 051531Z 09003KT 28/13 A3012 RMK A01 T02820127  RH  038%=      5-min Rain = 0
KSB1 051532Z 07001KT 28/13 A3012 RMK A01 T02830129  RH  039%=      5-min Rain = 0
KSB1 051533Z 07003KT 28/13 A3012 RMK A01 T02830130  RH  039%=      5-min Rain = 0
KSB1 051534Z 08002KT 28/13 A3012 RMK A01 T02830132  RH  039%=      5-min Rain = 0
KSB1 051535Z 08002KT 29/13 A3012 RMK A01 T02850134  RH  039%=      5-min Rain = 0
KSB1 051536Z 06001KT 29/13 A3012 RMK A01 T02860131  RH  038%=      5-min Rain = 0
KSB1 051537Z 06003KT 29/13 A3012 RMK A01 T02880129  RH  037%=      5-min Rain = 0
KSB1 051538Z 04004KT 29/13 A3012 RMK A01 T02890127  RH  037%=      5-min Rain = 0
KSB1 051539Z 06004KT 29/13 A3012 RMK A01 T02900125  RH  036%=      5-min Rain = 0
KSB1 051540Z 05005KT 29/13 A3012 RMK A01 T02910127  RH  036%=      5-min Rain = 0
KSB1 051541Z 03004KT 29/13 A3012 RMK A01 T02910127  RH  036%=      5-min Rain = 0
KSB1 051542Z 02003KT 29/12 A3012 RMK A01 T02890124  RH  036%=      5-min Rain = 0
KSB1 051543Z 05003KT 29/13 A3012 RMK A01 T02870126  RH  037%=      5-min Rain = 0
KSB1 051544Z 08003KT 29/13 A3012 RMK A01 T02870127  RH  037%=      5-min Rain = 0
KSB1 051545Z 08003KT 29/13 A3012 RMK A01 T02870127  RH  037%=      5-min Rain = 0
KSB1 051546Z 10003KT 29/13 A3012 RMK A01 T02870125  RH  037%=      5-min Rain = 0
KSB1 051547Z 10003KT 29/13 A3012 RMK A01 T02870125  RH  037%=      5-min Rain = 0
KSB1 051548Z 11003KT 29/12 A3012 RMK A01 T02860124  RH  037%=      5-min Rain = 0
KSB1 051549Z 08002KT 29/12 A3012 RMK A01 T02860122  RH  036%=      5-min Rain = 0
KSB1 051550Z 04002KT 29/12 A3012 RMK A01 T02860123  RH  036%=      5-min Rain = 0
KSB1 051551Z 04003KT 29/12 A3012 RMK A01 T02880123  RH  036%=      5-min Rain = 0
KSB1 051552Z 07001KT 29/12 A3012 RMK A01 T02900122  RH  036%=      5-min Rain = 0
KSB1 051553Z 04002KT 29/12 A3012 RMK A01 T02910122  RH  035%=      5-min Rain = 0
KSB1 051554Z 05002KT 29/12 A3012 RMK A01 T02910124  RH  036%=      5-min Rain = 0
KSB1 051555Z 05001KT 29/12 A3012 RMK A01 T02910123  RH  036%=      5-min Rain = 0
KSB1 051556Z 05001KT 29/12 A3012 RMK A01 T02900123  RH  036%=      5-min Rain = 0
KSB1 051557Z 05002KT 29/12 A3012 RMK A01 T02900124  RH  036%=      5-min Rain = 0
KSB1 051558Z 07001KT 29/12 A3012 RMK A01 T02900124  RH  036%=      5-min Rain = 0
KSB1 051559Z 07000KT 29/12 A3012 RMK A01 T02900124  RH  036%=      5-min Rain = 0
KSB1 051600Z 18000KT 29/12 A3012 RMK A01 T02910123  RH  036%=      5-min Rain = 0
KSB1 051601Z 18001KT 29/12 A3012 RMK A01 T02930121  RH  035%=      5-min Rain = 0
KSB1 051602Z 35001KT 29/12 A3012 RMK A01 T02940121  RH  034%=      5-min Rain = 0
KSB1 051603Z 00003KT 30/12 A3012 RMK A01 T02950122  RH  035%=      5-min Rain = 0
KSB1 051604Z 35003KT 30/12 A3012 RMK A01 T02950122  RH  035%=      5-min Rain = 0
KSB1 051605Z 01002KT 29/12 A3012 RMK A01 T02930122  RH  035%=      5-min Rain = 0
KSB1 051606Z 04002KT 29/12 A3012 RMK A01 T02920123  RH  035%=      5-min Rain = 0
KSB1 051607Z 01002KT 29/12 A3012 RMK A01 T02920122  RH  035%=      5-min Rain = 0
KSB1 051608Z 01002KT 29/12 A3012 RMK A01 T02910121  RH  035%=      5-min Rain = 0
KSB1 051609Z 04002KT 29/12 A3012 RMK A01 T02920121  RH  035%=      5-min Rain = 0
KSB1 051610Z 04000KT 29/12 A3012 RMK A01 T02900121  RH  035%=      5-min Rain = 0
KSB1 051611Z 13001KT 29/12 A3012 RMK A01 T02900120  RH  035%=      5-min Rain = 0
KSB1 051612Z 20002KT 29/12 A3012 RMK A01 T02900116  RH  034%=      5-min Rain = 0
KSB1 051613Z 20002KT 29/12 A3012 RMK A01 T02920115  RH  034%=      5-min Rain = 0
KSB1 051614Z 18000KT 29/11 A3011 RMK A01 T02920114  RH  033%=      5-min Rain = 0
KSB1 051615Z 19000KT 29/12 A3011 RMK A01 T02930115  RH  033%=      5-min Rain = 0
KSB1 051616Z 12000KT 29/12 A3011 RMK A01 T02940115  RH  033%=      5-min Rain = 0
KSB1 051617Z 02002KT 30/12 A3011 RMK A01 T02950116  RH  033%=      5-min Rain = 0
KSB1 051618Z 34004KT 30/12 A3011 RMK A01 T02950116  RH  033%=      5-min Rain = 0
KSB1 051619Z 34003KT 30/12 A3011 RMK A01 T02960116  RH  033%=      5-min Rain = 0
KSB1 051620Z 33002KT 30/12 A3011 RMK A01 T02960116  RH  033%=      5-min Rain = 0
KSB1 051621Z 29004KT 30/12 A3011 RMK A01 T02960115  RH  033%=      5-min Rain = 0
KSB1 051622Z 29002KT 30/11 A3011 RMK A01 T02960113  RH  032%=      5-min Rain = 0
KSB1 051623Z 36001KT 30/11 A3011 RMK A01 T02950113  RH  032%=      5-min Rain = 0
KSB1 051624Z 22002KT 29/11 A3011 RMK A01 T02930112  RH  033%=      5-min Rain = 0
KSB1 051625Z 23001KT 29/11 A3011 RMK A01 T02930112  RH  033%=      5-min Rain = 0
KSB1 051626Z 30004KT 29/11 A3011 RMK A01 T02930112  RH  033%=      5-min Rain = 0
KSB1 051627Z 29005KT 29/11 A3011 RMK A01 T02940112  RH  033%=      5-min Rain = 0
KSB1 051628Z 30005KT 29/11 A3011 RMK A01 T02940111  RH  032%=      5-min Rain = 0
KSB1 051629Z 29003KT 29/11 A3011 RMK A01 T02930110  RH  032%=      5-min Rain = 0
KSB1 051630Z 29005KT 29/11 A3011 RMK A01 T02930110  RH  032%=      5-min Rain = 0
KSB1 051631Z 28006KT 29/11 A3011 RMK A01 T02940111  RH  032%=      5-min Rain = 0
KSB1 051632Z 28009KT 30/11 A3011 RMK A01 T02950110  RH  032%=      5-min Rain = 0
KSB1 051633Z 28006KT 30/11 A3011 RMK A01 T02960110  RH  032%=      5-min Rain = 0
KSB1 051634Z 31004KT 30/11 A3011 RMK A01 T02960113  RH  032%=      5-min Rain = 0
KSB1 051635Z 32003KT 30/12 A3011 RMK A01 T02960115  RH  033%=      5-min Rain = 0
KSB1 051636Z 32003KT 30/11 A3011 RMK A01 T02960113  RH  032%=      5-min Rain = 0
KSB1 051637Z 31003KT 30/11 A3011 RMK A01 T02950113  RH  033%=      5-min Rain = 0
KSB1 051638Z 29004KT 30/11 A3011 RMK A01 T02950110  RH  032%=      5-min Rain = 0
KSB1 051639Z 28006KT 30/11 A3011 RMK A01 T02950110  RH  032%=      5-min Rain = 0
KSB1 051640Z 27006KT 30/11 A3011 RMK A01 T02960109  RH  031%=      5-min Rain = 0
KSB1 051641Z 27005KT 30/11 A3011 RMK A01 T02970109  RH  031%=      5-min Rain = 0
KSB1 051642Z 27008KT 30/11 A3012 RMK A01 T02980108  RH  031%=      5-min Rain = 0
KSB1 051643Z 26009KT 30/11 A3012 RMK A01 T02980108  RH  031%=      5-min Rain = 0
KSB1 051644Z 25007KT 30/11 A3012 RMK A01 T02970111  RH  032%=      5-min Rain = 0
KSB1 051645Z 27005KT 30/11 A3012 RMK A01 T02980109  RH  031%=      5-min Rain = 0
KSB1 051646Z 27006KT 30/11 A3012 RMK A01 T02970108  RH  031%=      5-min Rain = 0
KSB1 051647Z 28007KT 30/11 A3012 RMK A01 T02970108  RH  031%=      5-min Rain = 0
KSB1 051648Z 27005KT 30/11 A3012 RMK A01 T02960107  RH  031%=      5-min Rain = 0
KSB1 051649Z 26008KT 30/11 A3012 RMK A01 T02960108  RH  031%=      5-min Rain = 0
KSB1 051650Z 26006KT 30/11 A3012 RMK A01 T02960108  RH  031%=      5-min Rain = 0
KSB1 051651Z 25006KT 30/11 A3012 RMK A01 T02960107  RH  031%=      5-min Rain = 0
KSB1 051652Z 25007KT 30/11 A3012 RMK A01 T02960107  RH  031%=      5-min Rain = 0
KSB1 051653Z 24005KT 30/11 A3012 RMK A01 T02960107  RH  031%=      5-min Rain = 0
KSB1 051654Z 25004KT 29/11 A3012 RMK A01 T02940106  RH  031%=      5-min Rain = 0
KSB1 051655Z 23004KT 29/11 A3012 RMK A01 T02940106  RH  031%=      5-min Rain = 0
KSB1 051656Z 25004KT 30/11 A3012 RMK A01 T02950107  RH  031%=      5-min Rain = 0
KSB1 051657Z 29007KT 30/11 A3012 RMK A01 T02970108  RH  031%=      5-min Rain = 0
KSB1 051658Z 30006KT 30/11 A3012 RMK A01 T02980107  RH  031%=      5-min Rain = 0
KSB1 051659Z 30003KT 30/11 A3012 RMK A01 T02980107  RH  031%=      5-min Rain = 0
KSB1 051700Z 28005KT 30/11 A3012 RMK A01 T02970107  RH  031%=      5-min Rain = 0
KSB1 051701Z 28007KT 30/11 A3012 RMK A01 T02970106  RH  031%=      5-min Rain = 0
KSB1 051702Z 27006KT 30/11 A3012 RMK A01 T02970106  RH  031%=      5-min Rain = 0
KSB1 051703Z 25004KT 30/11 A3012 RMK A01 T02970106  RH  031%=      5-min Rain = 0
KSB1 051704Z 22003KT 30/11 A3012 RMK A01 T02950106  RH  031%=      5-min Rain = 0
KSB1 051705Z 23002KT 30/11 A3012 RMK A01 T02950106  RH  031%=      5-min Rain = 0
KSB1 051706Z 25003KT 30/11 A3012 RMK A01 T02950106  RH  031%=      5-min Rain = 0
KSB1 051707Z 24003KT 30/11 A3012 RMK A01 T02970106  RH  031%=      5-min Rain = 0
KSB1 051708Z 25002KT 30/11 A3012 RMK A01 T02970106  RH  031%=      5-min Rain = 0
KSB1 051709Z 24003KT 30/11 A3012 RMK A01 T02970107  RH  031%=      5-min Rain = 0
KSB1 051710Z 24003KT 30/11 A3012 RMK A01 T02980107  RH  031%=      5-min Rain = 0
KSB1 051711Z 25003KT 30/11 A3012 RMK A01 T02990108  RH  031%=      5-min Rain = 0
KSB1 051712Z 28006KT 30/11 A3012 RMK A01 T03010108  RH  030%=      5-min Rain = 0
KSB1 051713Z 28006KT 30/11 A3012 RMK A01 T03010108  RH  030%=      5-min Rain = 0
KSB1 051714Z 24005KT 30/11 A3012 RMK A01 T03000108  RH  030%=      5-min Rain = 0
KSB1 051715Z 26005KT 30/11 A3012 RMK A01 T02990107  RH  031%=      5-min Rain = 0
KSB1 051716Z 27006KT 30/11 A3012 RMK A01 T02990107  RH  031%=      5-min Rain = 0
KSB1 051717Z 27005KT 30/11 A3012 RMK A01 T02980108  RH  031%=      5-min Rain = 0
KSB1 051718Z 28005KT 30/11 A3012 RMK A01 T02980107  RH  031%=      5-min Rain = 0
KSB1 051719Z 28004KT 30/11 A3012 RMK A01 T02980107  RH  031%=      5-min Rain = 0
KSB1 051720Z 30002KT 30/11 A3012 RMK A01 T02980107  RH  031%=      5-min Rain = 0
KSB1 051721Z 29002KT 30/11 A3012 RMK A01 T02980107  RH  031%=      5-min Rain = 0
KSB1 051722Z 27005KT 30/11 A3012 RMK A01 T02980107  RH  031%=      5-min Rain = 0
KSB1 051723Z 27003KT 30/11 A3012 RMK A01 T02980107  RH  031%=      5-min Rain = 0
KSB1 051724Z 27002KT 30/11 A3012 RMK A01 T02980106  RH  030%=      5-min Rain = 0
KSB1 051725Z 25005KT 30/11 A3012 RMK A01 T02990106  RH  030%=      5-min Rain = 0
KSB1 051726Z 25005KT 30/11 A3012 RMK A01 T03000106  RH  030%=      5-min Rain = 0
KSB1 051727Z 25006KT 30/11 A3012 RMK A01 T02990105  RH  030%=      5-min Rain = 0
KSB1 051728Z 24005KT 30/10 A3012 RMK A01 T02990104  RH  030%=      5-min Rain = 0
KSB1 051729Z 24007KT 30/11 A3012 RMK A01 T03000105  RH  030%=      5-min Rain = 0
KSB1 051730Z 25005KT 30/11 A3012 RMK A01 T03000105  RH  030%=      5-min Rain = 0
KSB1 051731Z 26007KT 30/11 A3012 RMK A01 T03020107  RH  030%=      5-min Rain = 0
KSB1 051732Z 25006KT 30/11 A3012 RMK A01 T03040106  RH  029%=      5-min Rain = 0
KSB1 051733Z 25006KT 30/11 A3012 RMK A01 T03030106  RH  029%=      5-min Rain = 0
KSB1 051734Z 24006KT 30/11 A3012 RMK A01 T03040106  RH  029%=      5-min Rain = 0
KSB1 051735Z 26006KT 30/11 A3012 RMK A01 T03040106  RH  029%=      5-min Rain = 0
KSB1 051736Z 27008KT 30/11 A3012 RMK A01 T03040105  RH  029%=      5-min Rain = 0
KSB1 051737Z 27007KT 31/11 A3012 RMK A01 T03060106  RH  029%=      5-min Rain = 0
KSB1 051738Z 26006KT 31/11 A3012 RMK A01 T03050105  RH  029%=      5-min Rain = 0
KSB1 051739Z 26005KT 30/11 A3012 RMK A01 T03040105  RH  029%=      5-min Rain = 0
KSB1 051740Z 27007KT 30/10 A3012 RMK A01 T03030104  RH  029%=      5-min Rain = 0
KSB1 051741Z 26006KT 30/10 A3012 RMK A01 T03040104  RH  029%=      5-min Rain = 0
KSB1 051742Z 26005KT 30/10 A3012 RMK A01 T03040103  RH  029%=      5-min Rain = 0
KSB1 051743Z 24005KT 30/10 A3012 RMK A01 T03040104  RH  029%=      5-min Rain = 0
KSB1 051744Z 22004KT 30/10 A3012 RMK A01 T03040104  RH  029%=      5-min Rain = 0
KSB1 051745Z 24004KT 31/11 A3011 RMK A01 T03050105  RH  029%=      5-min Rain = 0
KSB1 051746Z 23003KT 31/11 A3011 RMK A01 T03070105  RH  029%=      5-min Rain = 0
KSB1 051747Z 25004KT 31/10 A3011 RMK A01 T03070103  RH  028%=      5-min Rain = 0
KSB1 051748Z 29005KT 31/10 A3011 RMK A01 T03060104  RH  029%=      5-min Rain = 0
KSB1 051749Z 34005KT 31/11 A3012 RMK A01 T03070106  RH  029%=      5-min Rain = 0
KSB1 051750Z 35004KT 31/11 A3012 RMK A01 T03070106  RH  029%=      5-min Rain = 0
KSB1 051751Z 01003KT 31/11 A3011 RMK A01 T03090106  RH  029%=      5-min Rain = 0
KSB1 051752Z 27004KT 31/11 A3011 RMK A01 T03100107  RH  029%=      5-min Rain = 0
KSB1 051753Z 30004KT 31/11 A3011 RMK A01 T03110106  RH  028%=      5-min Rain = 0
KSB1 051754Z 30004KT 31/11 A3011 RMK A01 T03110106  RH  028%=      5-min Rain = 0
KSB1 051755Z 24006KT 31/11 A3011 RMK A01 T03110106  RH  028%=      5-min Rain = 0
KSB1 051756Z 23003KT 31/11 A3011 RMK A01 T03120105  RH  028%=      5-min Rain = 0
KSB1 051757Z 25003KT 31/11 A3011 RMK A01 T03120105  RH  028%=      5-min Rain = 0
KSB1 051758Z 27003KT 31/10 A3011 RMK A01 T03110104  RH  028%=      5-min Rain = 0
KSB1 051759Z 27006KT 31/10 A3011 RMK A01 T03100103  RH  028%=      5-min Rain = 0
KSB1 051800Z 24009KT 31/10 A3011 RMK A01 T03100104  RH  028%=      5-min Rain = 0
KSB1 051801Z 23007KT 31/10 A3011 RMK A01 T03080103  RH  028%=      5-min Rain = 0
KSB1 051802Z 26004KT 31/10 A3011 RMK A01 T03070103  RH  028%=      5-min Rain = 0
KSB1 051803Z 32004KT 31/10 A3011 RMK A01 T03090104  RH  028%=      5-min Rain = 0
KSB1 051804Z 32006KT 31/11 A3011 RMK A01 T03110105  RH  028%=      5-min Rain = 0
KSB1 051805Z 31005KT 31/10 A3011 RMK A01 T03100104  RH  028%=      5-min Rain = 0
KSB1 051806Z 30008KT 31/10 A3011 RMK A01 T03090104  RH  028%=      5-min Rain = 0
KSB1 051807Z 31006KT 31/10 A3011 RMK A01 T03080103  RH  028%=      5-min Rain = 0
KSB1 051808Z 30006KT 31/10 A3011 RMK A01 T03060102  RH  028%=      5-min Rain = 0
KSB1 051809Z 29006KT 31/10 A3011 RMK A01 T03050102  RH  028%=      5-min Rain = 0
KSB1 051810Z 28006KT 31/10 A3011 RMK A01 T03050103  RH  029%=      5-min Rain = 0
KSB1 051811Z 29007KT 31/10 A3011 RMK A01 T03060103  RH  028%=      5-min Rain = 0
KSB1 051812Z 28005KT 31/10 A3011 RMK A01 T03070102  RH  028%=      5-min Rain = 0
KSB1 051813Z 31007KT 31/10 A3011 RMK A01 T03060102  RH  028%=      5-min Rain = 0
KSB1 051814Z 35003KT 31/10 A3011 RMK A01 T03060102  RH  028%=      5-min Rain = 0
KSB1 051815Z 00003KT 31/10 A3011 RMK A01 T03050101  RH  028%=      5-min Rain = 0
KSB1 051816Z 34003KT 31/10 A3011 RMK A01 T03050102  RH  028%=      5-min Rain = 0
KSB1 051817Z 00003KT 31/10 A3011 RMK A01 T03060102  RH  028%=      5-min Rain = 0
KSB1 051818Z 24003KT 31/10 A3011 RMK A01 T03070102  RH  028%=      5-min Rain = 0
KSB1 051819Z 25005KT 31/10 A3011 RMK A01 T03060101  RH  028%=      5-min Rain = 0
KSB1 051820Z 26005KT 31/10 A3011 RMK A01 T03050101  RH  028%=      5-min Rain = 0
KSB1 051821Z 27003KT 31/10 A3011 RMK A01 T03060102  RH  028%=      5-min Rain = 0
KSB1 051822Z 27007KT 31/10 A3011 RMK A01 T03060102  RH  028%=      5-min Rain = 0
KSB1 051823Z 25004KT 31/10 A3011 RMK A01 T03060103  RH  028%=      5-min Rain = 0
KSB1 051824Z 26003KT 31/10 A3011 RMK A01 T03060103  RH  029%=      5-min Rain = 0
KSB1 051825Z 28002KT 31/10 A3011 RMK A01 T03060103  RH  029%=      5-min Rain = 0
KSB1 051826Z 25006KT 31/10 A3011 RMK A01 T03060103  RH  028%=      5-min Rain = 0
KSB1 051827Z 25006KT 31/10 A3011 RMK A01 T03080103  RH  028%=      5-min Rain = 0
KSB1 051828Z 27004KT 31/10 A3011 RMK A01 T03060102  RH  028%=      5-min Rain = 0
KSB1 051829Z 31003KT 31/10 A3011 RMK A01 T03050102  RH  028%=      5-min Rain = 0
KSB1 051830Z 27003KT 31/10 A3011 RMK A01 T03050102  RH  028%=      5-min Rain = 0
KSB1 051831Z 28007KT 31/11 A3011 RMK A01 T03050105  RH  029%=      5-min Rain = 0
KSB1 051832Z 27006KT 31/11 A301 RMK A01 T03080107  RH  029%=      5-min Rain = 0
KSB1 051833Z 29006KT 31/11 A301 RMK A01 T03100107  RH  029%=      5-min Rain = 0
KSB1 051834Z 28007KT 31/11 A301 RMK A01 T03110106  RH  028%=      5-min Rain = 0
KSB1 051835Z 30007KT 31/11 A301 RMK A01 T03110107  RH  028%=      5-min Rain = 0
KSB1 051836Z 31005KT 31/11 A301 RMK A01 T03100106  RH  028%=      5-min Rain = 0
KSB1 051837Z 28004KT 31/11 A301 RMK A01 T03080106  RH  029%=      5-min Rain = 0
KSB1 051838Z 28003KT 31/11 A301 RMK A01 T03090106  RH  029%=      5-min Rain = 0
KSB1 051839Z 31005KT 31/11 A301 RMK A01 T03090106  RH  028%=      5-min Rain = 0
KSB1 051840Z 30003KT 31/11 A301 RMK A01 T03080105  RH  029%=      5-min Rain = 0
KSB1 051841Z 29001KT 31/11 A301 RMK A01 T03070105  RH  029%=      5-min Rain = 0
KSB1 051842Z 28001KT 31/11 A301 RMK A01 T03070105  RH  029%=      5-min Rain = 0
KSB1 051843Z 28003KT 31/11 A301 RMK A01 T03070106  RH  029%=      5-min Rain = 0
KSB1 051844Z 29002KT 31/11 A301 RMK A01 T03070105  RH  029%=      5-min Rain = 0
KSB1 051845Z 31002KT 31/11 A301 RMK A01 T03070106  RH  029%=      5-min Rain = 0
KSB1 051846Z 30004KT 31/11 A301 RMK A01 T03070106  RH  029%=      5-min Rain = 0
KSB1 051847Z 28005KT 31/10 A301 RMK A01 T03080103  RH  028%=      5-min Rain = 0
KSB1 051848Z 30005KT 31/10 A301 RMK A01 T03100100  RH  027%=      5-min Rain = 0
KSB1 051849Z 29004KT 31/10 A301 RMK A01 T03090102  RH  028%=      5-min Rain = 0
KSB1 051850Z 30003KT 31/10 A301 RMK A01 T03080101  RH  028%=      5-min Rain = 0
KSB1 051851Z 31004KT 31/10 A3009 RMK A01 T03090101  RH  028%=      5-min Rain = 0
KSB1 051852Z 33001KT 31/10 A3009 RMK A01 T03100099  RH  027%=      5-min Rain = 0
KSB1 051853Z 29002KT 31/10 A3009 RMK A01 T03100100  RH  027%=      5-min Rain = 0
KSB1 051854Z 29005KT 31/10 A3009 RMK A01 T03110100  RH  027%=      5-min Rain = 0
KSB1 051855Z 30006KT 31/10 A3009 RMK A01 T03110098  RH  027%=      5-min Rain = 0
KSB1 051856Z 31003KT 31/10 A3009 RMK A01 T03110095  RH  026%=      5-min Rain = 0
KSB1 051857Z 29004KT 31/10 A3009 RMK A01 T03120095  RH  026%=      5-min Rain = 0
KSB1 051858Z 27005KT 31/10 A3009 RMK A01 T03130099  RH  027%=      5-min Rain = 0
KSB1 051859Z 27003KT 31/10 A3009 RMK A01 T03140100  RH  027%=      5-min Rain = 0
KSB1 051900Z 27004KT 31/10 A3009 RMK A01 T03140099  RH  026%=      5-min Rain = 0
KSB1 051901Z 26005KT 31/10 A3009 RMK A01 T03140099  RH  027%=      5-min Rain = 0
KSB1 051902Z 27003KT 31/10 A3009 RMK A01 T03130099  RH  027%=      5-min Rain = 0
KSB1 051903Z 24005KT 31/10 A3009 RMK A01 T03140099  RH  027%=      5-min Rain = 0
KSB1 051904Z 22007KT 32/10 A3009 RMK A01 T03150099  RH  026%=      5-min Rain = 0
KSB1 051905Z 23006KT 31/10 A3009 RMK A01 T03140098  RH  026%=      5-min Rain = 0
KSB1 051906Z 24006KT 31/10 A3009 RMK A01 T03140098  RH  026%=      5-min Rain = 0
KSB1 051907Z 25003KT 31/10 A3009 RMK A01 T03140100  RH  027%=      5-min Rain = 0
KSB1 051908Z 24005KT 32/10 A3009 RMK A01 T03150100  RH  027%=      5-min Rain = 0
KSB1 051909Z 23005KT 32/10 A3009 RMK A01 T03180101  RH  026%=      5-min Rain = 0
KSB1 051910Z 23006KT 32/10 A3009 RMK A01 T03190100  RH  026%=      5-min Rain = 0
KSB1 051911Z 23007KT 32/10 A3009 RMK A01 T03190099  RH  026%=      5-min Rain = 0
KSB1 051912Z 23004KT 32/10 A3009 RMK A01 T03200098  RH  026%=      5-min Rain = 0
KSB1 051913Z 19003KT 32/10 A3009 RMK A01 T03180097  RH  026%=      5-min Rain = 0
KSB1 051914Z 25005KT 32/10 A3009 RMK A01 T03160097  RH  026%=      5-min Rain = 0
KSB1 051915Z 26007KT 32/10 A3008 RMK A01 T03160096  RH  026%=      5-min Rain = 0
KSB1 051916Z 26007KT 32/10 A3008 RMK A01 T03170095  RH  025%=      5-min Rain = 0
KSB1 051917Z 26006KT 32/10 A3008 RMK A01 T03170095  RH  025%=      5-min Rain = 0
KSB1 051918Z 28003KT 32/10 A3008 RMK A01 T03170096  RH  025%=      5-min Rain = 0
KSB1 051919Z 26003KT 32/10 A3008 RMK A01 T03190097  RH  025%=      5-min Rain = 0
KSB1 051920Z 28005KT 32/10 A3008 RMK A01 T03220097  RH  025%=      5-min Rain = 0
KSB1 051921Z 27006KT 32/10 A3008 RMK A01 T03210095  RH  025%=      5-min Rain = 0
KSB1 051922Z 28003KT 32/10 A3008 RMK A01 T03210095  RH  025%=      5-min Rain = 0
KSB1 051923Z 28004KT 32/10 A3008 RMK A01 T03220096  RH  025%=      5-min Rain = 0
KSB1 051924Z 28006KT 32/10 A3008 RMK A01 T03240097  RH  025%=      5-min Rain = 0
KSB1 051925Z 29007KT 33/10 A3008 RMK A01 T03270098  RH  024%=      5-min Rain = 0
KSB1 051926Z 29007KT 33/10 A3008 RMK A01 T03270098  RH  024%=      5-min Rain = 0
KSB1 051927Z 30005KT 33/10 A3008 RMK A01 T03260098  RH  025%=      5-min Rain = 0
KSB1 051928Z 33003KT 33/10 A3008 RMK A01 T03250097  RH  025%=      5-min Rain = 0
KSB1 051929Z 30002KT 32/10 A3008 RMK A01 T03230098  RH  025%=      5-min Rain = 0
KSB1 051930Z 29004KT 32/10 A3008 RMK A01 T03230097  RH  025%=      5-min Rain = 0
KSB1 051931Z 27008KT 32/10 A3008 RMK A01 T03230095  RH  025%=      5-min Rain = 0
KSB1 051932Z 29009KT 32/09 A3008 RMK A01 T03240094  RH  024%=      5-min Rain = 0
KSB1 051933Z 28007KT 32/09 A3008 RMK A01 T03240093  RH  024%=      5-min Rain = 0
KSB1 051934Z 29006KT 32/09 A3008 RMK A01 T03230093  RH  024%=      5-min Rain = 0
KSB1 051935Z 30005KT 32/09 A3008 RMK A01 T03220093  RH  024%=      5-min Rain = 0
KSB1 051936Z 29006KT 33/09 A3008 RMK A01 T03250093  RH  024%=      5-min Rain = 0
KSB1 051937Z 30005KT 32/09 A3008 RMK A01 T03240093  RH  024%=      5-min Rain = 0
KSB1 051938Z 29004KT 32/09 A3008 RMK A01 T03230092  RH  024%=      5-min Rain = 0
KSB1 051939Z 27003KT 32/09 A3007 RMK A01 T03220092  RH  024%=      5-min Rain = 0
KSB1 051940Z 01002KT 32/09 A3007 RMK A01 T03210091  RH  024%=      5-min Rain = 0
KSB1 051941Z 04001KT 32/09 A3007 RMK A01 T03220091  RH  024%=      5-min Rain = 0
KSB1 051942Z 28003KT 32/09 A3007 RMK A01 T03240094  RH  024%=      5-min Rain = 0
KSB1 051943Z 26004KT 33/10 A3007 RMK A01 T03280095  RH  024%=      5-min Rain = 0
KSB1 051944Z 25004KT 33/10 A3007 RMK A01 T03320095  RH  023%=      5-min Rain = 0
KSB1 051945Z 29008KT 33/10 A3007 RMK A01 T03340095  RH  023%=      5-min Rain = 0
KSB1 051946Z 29009KT 33/09 A3007 RMK A01 T03340093  RH  023%=      5-min Rain = 0
KSB1 051947Z 27009KT 33/09 A3007 RMK A01 T03320091  RH  023%=      5-min Rain = 0
KSB1 051948Z 27009KT 33/09 A3007 RMK A01 T03310092  RH  023%=      5-min Rain = 0
KSB1 051949Z 27009KT 33/09 A3007 RMK A01 T03300091  RH  023%=      5-min Rain = 0
KSB1 051950Z 25006KT 33/09 A3007 RMK A01 T03320093  RH  023%=      5-min Rain = 0
KSB1 051951Z 29002KT 33/09 A3007 RMK A01 T03310094  RH  023%=      5-min Rain = 0
KSB1 051952Z 33003KT 33/09 A3007 RMK A01 T03330094  RH  023%=      5-min Rain = 0
KSB1 051953Z 27001KT 33/09 A3007 RMK A01 T03340094  RH  023%=      5-min Rain = 0
KSB1 051954Z 27003KT 33/09 A3007 RMK A01 T03330093  RH  023%=      5-min Rain = 0
KSB1 051955Z 29006KT 33/09 A3007 RMK A01 T03330092  RH  023%=      5-min Rain = 0
KSB1 051956Z 24005KT 33/09 A3007 RMK A01 T03320091  RH  023%=      5-min Rain = 0
KSB1 051957Z 22005KT 33/09 A3007 RMK A01 T03300091  RH  023%=      5-min Rain = 0
KSB1 051958Z 21003KT 33/09 A3007 RMK A01 T03280091  RH  023%=      5-min Rain = 0
KSB1 051959Z 24003KT 33/09 A3007 RMK A01 T03290091  RH  023%=      5-min Rain = 0
KSB1 052000Z 24006KT 33/09 A3006 RMK A01 T03320088  RH  022%=      5-min Rain = 0
KSB1 052001Z 24010KT 34/09 A3006 RMK A01 T03360087  RH  022%=      5-min Rain = 0
KSB1 052002Z 25011KT 34/09 A3006 RMK A01 T03380088  RH  021%=      5-min Rain = 0
KSB1 052003Z 27008KT 34/09 A3006 RMK A01 T03350085  RH  021%=      5-min Rain = 0
KSB1 052004Z 26004KT 33/09 A3006 RMK A01 T03330086  RH  022%=      5-min Rain = 0
KSB1 052005Z 24008KT 33/09 A3006 RMK A01 T03340087  RH  022%=      5-min Rain = 0
KSB1 052006Z 22008KT 34/09 A3006 RMK A01 T03350087  RH  022%=      5-min Rain = 0
KSB1 052007Z 21008KT 34/09 A3006 RMK A01 T03360086  RH  021%=      5-min Rain = 0
KSB1 052008Z 20008KT 34/08 A3006 RMK A01 T03370083  RH  021%=      5-min Rain = 0
KSB1 052009Z 16007KT 34/08 A3006 RMK A01 T03370084  RH  021%=      5-min Rain = 0
KSB1 052010Z 16006KT 34/09 A3006 RMK A01 T03370085  RH  021%=      5-min Rain = 0
KSB1 052011Z 15004KT 34/09 A3006 RMK A01 T03370085  RH  021%=      5-min Rain = 0
KSB1 052012Z 16004KT 34/09 A3006 RMK A01 T03370086  RH  021%=      5-min Rain = 0
KSB1 052013Z 21004KT 34/08 A3006 RMK A01 T03360084  RH  021%=      5-min Rain = 0
KSB1 052014Z 22002KT 33/08 A3006 RMK A01 T03330082  RH  021%=      5-min Rain = 0
KSB1 052015Z 18002KT 33/08 A3006 RMK A01 T03340083  RH  021%=      5-min Rain = 0
KSB1 052016Z 17003KT 34/08 A3006 RMK A01 T03370083  RH  021%=      5-min Rain = 0
KSB1 052017Z 18001KT 34/08 A3006 RMK A01 T03390084  RH  021%=      5-min Rain = 0
KSB1 052018Z 14004KT 34/09 A3006 RMK A01 T03420085  RH  021%=      5-min Rain = 0
KSB1 052019Z 15003KT 34/09 A3005 RMK A01 T03430087  RH  021%=      5-min Rain = 0
KSB1 052020Z 17002KT 35/09 A3005 RMK A01 T03450087  RH  021%=      5-min Rain = 0
KSB1 052021Z 16002KT 35/09 A3005 RMK A01 T03480087  RH  020%=      5-min Rain = 0
KSB1 052022Z 33005KT 35/09 A3005 RMK A01 T03490088  RH  020%=      5-min Rain = 0
KSB1 052023Z 30003KT 35/09 A3005 RMK A01 T03490088  RH  020%=      5-min Rain = 0
KSB1 052024Z 29005KT 35/09 A3005 RMK A01 T03490087  RH  020%=      5-min Rain = 0
KSB1 052025Z 29008KT 35/08 A3005 RMK A01 T03460084  RH  020%=      5-min Rain = 0
KSB1 052026Z 31007KT 35/08 A3005 RMK A01 T03450083  RH  020%=      5-min Rain = 0
KSB1 052027Z 31003G8KT 34/08 A3005 RMK A01 T03420082  RH  020%=      5-min Rain = 0
KSB1 052028Z 31006KT 34/08 A3005 RMK A01 T03410083  RH  020%=      5-min Rain = 0
KSB1 052029Z 31005KT 34/08 A3005 RMK A01 T03410083  RH  021%=      5-min Rain = 0
KSB1 052030Z 32005KT 34/08 A3005 RMK A01 T03400083  RH  021%=      5-min Rain = 0
KSB1 052031Z 32007KT 34/08 A3005 RMK A01 T03400083  RH  021%=      5-min Rain = 0
KSB1 052032Z 32005KT 34/08 A3005 RMK A01 T03400083  RH  020%=      5-min Rain = 0
KSB1 052033Z 33006KT 34/08 A3005 RMK A01 T03400084  RH  021%=      5-min Rain = 0
KSB1 052034Z 32004KT 34/09 A3005 RMK A01 T03400086  RH  021%=      5-min Rain = 0
KSB1 052035Z 31005KT 34/09 A3005 RMK A01 T03410087  RH  021%=      5-min Rain = 0
KSB1 052036Z 30004KT 34/09 A3005 RMK A01 T03420087  RH  021%=      5-min Rain = 0
KSB1 052037Z 31005KT 34/09 A3005 RMK A01 T03390088  RH  021%=      5-min Rain = 0
KSB1 052038Z 02002KT 34/09 A3005 RMK A01 T03370088  RH  022%=      5-min Rain = 0
KSB1 052039Z 06003KT 34/09 A3004 RMK A01 T03370088  RH  022%=      5-min Rain = 0
KSB1 052040Z 08002KT 34/09 A3004 RMK A01 T03380088  RH  021%=      5-min Rain = 0
KSB1 052041Z 07003KT 34/09 A3004 RMK A01 T03390089  RH  021%=      5-min Rain = 0
KSB1 052042Z 07003KT 34/09 A3004 RMK A01 T03380087  RH  021%=      5-min Rain = 0
KSB1 052043Z 03004KT 34/09 A3004 RMK A01 T03420090  RH  021%=      5-min Rain = 0
KSB1 052044Z 35002KT 35/09 A3004 RMK A01 T03480090  RH  021%=      5-min Rain = 0
KSB1 052045Z 29004KT 35/09 A3004 RMK A01 T03500090  RH  020%=      5-min Rain = 0
KSB1 052046Z 26005KT 35/09 A3004 RMK A01 T03510091  RH  021%=      5-min Rain = 0
KSB1 052047Z 26004KT 35/09 A3004 RMK A01 T03500090  RH  020%=      5-min Rain = 0
KSB1 052048Z 32002KT 35/09 A3004 RMK A01 T03460088  RH  021%=      5-min Rain = 0
KSB1 052049Z 06002KT 34/09 A3004 RMK A01 T03430088  RH  021%=      5-min Rain = 0
KSB1 052050Z 06001KT 34/09 A3004 RMK A01 T03420089  RH  021%=      5-min Rain = 0
KSB1 052051Z 27001KT 34/09 A3004 RMK A01 T03440090  RH  021%=      5-min Rain = 0
KSB1 052052Z 32003KT 35/09 A3004 RMK A01 T03470090  RH  021%=      5-min Rain = 0
KSB1 052053Z 32007G12KT 35/09 A3004 RMK A01 T03490088  RH  020%=      5-min Rain = 0
KSB1 052054Z 31009KT 35/09 A3004 RMK A01 T03490086  RH  020%=      5-min Rain = 0
KSB1 052055Z 29011KT 35/09 A3003 RMK A01 T03500087  RH  020%=      5-min Rain = 0
KSB1 052056Z 32009KT 35/09 A3003 RMK A01 T03490087  RH  020%=      5-min Rain = 0
KSB1 052057Z 32011KT 35/09 A3003 RMK A01 T03530087  RH  020%=      5-min Rain = 0
KSB1 052058Z 32011KT 36/09 A3003 RMK A01 T03550088  RH  020%=      5-min Rain = 0
KSB1 052059Z 28013KT 35/09 A3003 RMK A01 T03530091  RH  020%=      5-min Rain = 0
KSB1 052100Z 29013G18KT 35/09 A3003 RMK A01 T03490088  RH  020%=      5-min Rain = 0
KSB1 052101Z 30010KT 34/09 A3003 RMK A01 T03440087  RH  021%=      5-min Rain = 0
KSB1 052102Z 29012KT 34/09 A3003 RMK A01 T03410089  RH  021%=      5-min Rain = 0
KSB1 052103Z 28009KT 34/09 A3003 RMK A01 T03370090  RH  022%=      5-min Rain = 0
KSB1 052104Z 29012KT 34/09 A3003 RMK A01 T03380089  RH  022%=      5-min Rain = 0
KSB1 052105Z 32009KT 34/09 A3003 RMK A01 T03400088  RH  021%=      5-min Rain = 0
KSB1 052106Z 32010KT 34/09 A3003 RMK A01 T03430087  RH  021%=      5-min Rain = 0
KSB1 052107Z 31006KT 34/09 A3003 RMK A01 T03420088  RH  021%=      5-min Rain = 0
KSB1 052108Z 32007KT 34/09 A3003 RMK A01 T03410090  RH  021%=      5-min Rain = 0
KSB1 052109Z 30011KT 34/09 A3003 RMK A01 T03430093  RH  022%=      5-min Rain = 0
KSB1 052110Z 29007KT 34/09 A3003 RMK A01 T03430093  RH  022%=      5-min Rain = 0
KSB1 052111Z 28008KT 34/09 A3003 RMK A01 T03430093  RH  022%=      5-min Rain = 0
KSB1 052112Z 30010KT 34/09 A3003 RMK A01 T03430093  RH  022%=      5-min Rain = 0
KSB1 052113Z 31007KT 34/09 A3003 RMK A01 T03430093  RH  022%=      5-min Rain = 0
KSB1 052114Z 33007KT 34/09 A3003 RMK A01 T03430093  RH  022%=      5-min Rain = 0
KSB1 052115Z 33004KT 34/09 A3003 RMK A01 T03420092  RH  022%=      5-min Rain = 0
KSB1 052116Z 04002KT 34/09 A3003 RMK A01 T03400091  RH  022%=      5-min Rain = 0
KSB1 052117Z 03001KT 34/09 A3003 RMK A01 T03390091  RH  022%=      5-min Rain = 0
KSB1 052118Z 05000KT 34/09 A3003 RMK A01 T03380091  RH  022%=      5-min Rain = 0
KSB1 052119Z 16000KT 34/09 A3003 RMK A01 T03380091  RH  022%=      5-min Rain = 0
KSB1 052120Z 23003KT 34/09 A3003 RMK A01 T03400092  RH  022%=      5-min Rain = 0
KSB1 052121Z 30005KT 34/09 A3003 RMK A01 T03420092  RH  022%=      5-min Rain = 0
KSB1 052122Z 29004KT 34/09 A3003 RMK A01 T03420091  RH  022%=      5-min Rain = 0
KSB1 052123Z 30004KT 34/09 A3002 RMK A01 T03380091  RH  022%=      5-min Rain = 0
KSB1 052124Z 33007KT 34/09 A3002 RMK A01 T03380089  RH  022%=      5-min Rain = 0
KSB1 052125Z 33006KT 34/09 A3002 RMK A01 T03400087  RH  021%=      5-min Rain = 0
KSB1 052126Z 34006KT 34/09 A3002 RMK A01 T03420085  RH  021%=      5-min Rain = 0
KSB1 052127Z 35006KT 34/08 A3002 RMK A01 T03420083  RH  020%=      5-min Rain = 0
KSB1 052128Z 01006KT 34/08 A3002 RMK A01 T03400083  RH  021%=      5-min Rain = 0
KSB1 052129Z 36006KT 34/08 A3002 RMK A01 T03400084  RH  021%=      5-min Rain = 0
KSB1 052130Z 33005KT 34/09 A3002 RMK A01 T03420086  RH  021%=      5-min Rain = 0
KSB1 052131Z 30008KT 34/09 A3002 RMK A01 T03420088  RH  021%=      5-min Rain = 0
KSB1 052132Z 28010KT 34/09 A3002 RMK A01 T03420089  RH  021%=      5-min Rain = 0
KSB1 052133Z 28008KT 34/09 A3002 RMK A01 T03420089  RH  021%=      5-min Rain = 0
KSB1 052134Z 28009KT 34/09 A3002 RMK A01 T03420087  RH  021%=      5-min Rain = 0
KSB1 052135Z 31007KT 34/09 A3002 RMK A01 T03420087  RH  021%=      5-min Rain = 0
KSB1 052136Z 32007KT 34/09 A3002 RMK A01 T03440088  RH  021%=      5-min Rain = 0
KSB1 052137Z 31008KT 34/09 A3002 RMK A01 T03440088  RH  021%=      5-min Rain = 0
KSB1 052138Z 34008KT 35/09 A3002 RMK A01 T03460089  RH  021%=      5-min Rain = 0
KSB1 052139Z 33007KT 35/09 A3002 RMK A01 T03480088  RH  020%=      5-min Rain = 0
KSB1 052140Z 34006KT 35/09 A3002 RMK A01 T03470089  RH  021%=      5-min Rain = 0
KSB1 052141Z 34007KT 35/09 A3002 RMK A01 T03460090  RH  021%=      5-min Rain = 0
KSB1 052142Z 35008KT 35/09 A3002 RMK A01 T03460089  RH  021%=      5-min Rain = 0
KSB1 052143Z 34007KT 35/09 A3002 RMK A01 T03460091  RH  021%=      5-min Rain = 0
KSB1 052144Z 34005KT 35/09 A3002 RMK A01 T03460091  RH  021%=      5-min Rain = 0
KSB1 052145Z 01004KT 34/09 A3002 RMK A01 T03420089  RH  021%=      5-min Rain = 0
KSB1 052146Z 02003KT 34/09 A3002 RMK A01 T03380090  RH  022%=      5-min Rain = 0
KSB1 052147Z 33007KT 34/09 A3002 RMK A01 T03380088  RH  021%=      5-min Rain = 0
KSB1 052148Z 31010KT 34/09 A3002 RMK A01 T03420085  RH  021%=      5-min Rain = 0
KSB1 052149Z 33008KT 35/09 A3002 RMK A01 T03480086  RH  020%=      5-min Rain = 0
KSB1 052150Z 33007KT 35/09 A3002 RMK A01 T03530086  RH  020%=      5-min Rain = 0
KSB1 052151Z 32010G15KT 35/09 A3001 RMK A01 T03540086  RH  019%=      5-min Rain = 0
KSB1 052152Z 33013KT 36/08 A3001 RMK A01 T03550083  RH  019%=      5-min Rain = 0
KSB1 052153Z 33012KT 35/08 A3001 RMK A01 T03530081  RH  019%=      5-min Rain = 0
KSB1 052154Z 32010KT 35/08 A3001 RMK A01 T03520081  RH  019%=      5-min Rain = 0
KSB1 052155Z 31009KT 35/08 A3001 RMK A01 T03540082  RH  019%=      5-min Rain = 0
KSB1 052156Z 30010KT 35/08 A3001 RMK A01 T03540082  RH  019%=      5-min Rain = 0
KSB1 052157Z 32009KT 35/08 A3001 RMK A01 T03540080  RH  019%=      5-min Rain = 0
KSB1 052158Z 34009KT 35/08 A3001 RMK A01 T03520082  RH  019%=      5-min Rain = 0
KSB1 052159Z 33006KT 35/08 A3001 RMK A01 T03510080  RH  019%=      5-min Rain = 0
KSB1 052200Z 33010KT 35/08 A3001 RMK A01 T03500081  RH  019%=      5-min Rain = 0
KSB1 052201Z 31012KT 35/08 A3001 RMK A01 T03500083  RH  019%=      5-min Rain = 0
KSB1 052202Z 31011KT 35/08 A3001 RMK A01 T03490081  RH  019%=      5-min Rain = 0
KSB1 052203Z 31006KT 35/08 A3001 RMK A01 T03480081  RH  019%=      5-min Rain = 0
KSB1 052204Z 30004KT 35/08 A3001 RMK A01 T03480082  RH  020%=      5-min Rain = 0
KSB1 052205Z 24002KT 35/08 A3001 RMK A01 T03480083  RH  020%=      5-min Rain = 0
KSB1 052206Z 28005KT 35/08 A3001 RMK A01 T03490083  RH  020%=      5-min Rain = 0
KSB1 052207Z 26008KT 35/08 A3001 RMK A01 T03490082  RH  020%=      5-min Rain = 0
KSB1 052208Z 26004G9KT 35/08 A3001 RMK A01 T03480082  RH  020%=      5-min Rain = 0
KSB1 052209Z 29003KT 34/08 A3001 RMK A01 T03430083  RH  020%=      5-min Rain = 0
KSB1 052210Z 30009KT 35/09 A3001 RMK A01 T03460085  RH  020%=      5-min Rain = 0
KSB1 052211Z 30005KT 35/08 A3001 RMK A01 T03470084  RH  020%=      5-min Rain = 0
KSB1 052212Z 32006KT 35/08 A3001 RMK A01 T03460083  RH  020%=      5-min Rain = 0
KSB1 052213Z 32005KT 34/08 A3001 RMK A01 T03440083  RH  020%=      5-min Rain = 0
KSB1 052214Z 31003KT 34/08 A3001 RMK A01 T03410084  RH  020%=      5-min Rain = 0
KSB1 052215Z 28006KT 34/09 A30 RMK A01 T03400085  RH  021%=      5-min Rain = 0
KSB1 052216Z 26006KT 34/09 A30 RMK A01 T03410087  RH  021%=      5-min Rain = 0
KSB1 052217Z 28006KT 34/09 A30 RMK A01 T03410088  RH  021%=      5-min Rain = 0
KSB1 052218Z 28006KT 34/09 A30 RMK A01 T03420088  RH  021%=      5-min Rain = 0
KSB1 052219Z 30006KT 34/09 A30 RMK A01 T03420088  RH  021%=      5-min Rain = 0
KSB1 052220Z 29005KT 34/09 A30 RMK A01 T03420089  RH  021%=      5-min Rain = 0
KSB1 052221Z 35004KT 34/09 A30 RMK A01 T03420089  RH  021%=      5-min Rain = 0
KSB1 052222Z 35006KT 34/09 A30 RMK A01 T03440089  RH  021%=      5-min Rain = 0
KSB1 052223Z 34004KT 35/09 A30 RMK A01 T03450088  RH  021%=      5-min Rain = 0
KSB1 052224Z 29007KT 35/09 A30 RMK A01 T03450090  RH  021%=      5-min Rain = 0
KSB1 052225Z 31009KT 35/09 A30 RMK A01 T03470091  RH  021%=      5-min Rain = 0
KSB1 052226Z 32008KT 35/09 A30 RMK A01 T03460091  RH  021%=      5-min Rain = 0
KSB1 052227Z 30007KT 34/09 A30 RMK A01 T03430090  RH  021%=      5-min Rain = 0
KSB1 052228Z 31007KT 34/09 A30 RMK A01 T03420090  RH  021%=      5-min Rain = 0
KSB1 052229Z 29006KT 35/09 A30 RMK A01 T03450090  RH  021%=      5-min Rain = 0
KSB1 052230Z 28007KT 35/09 A30 RMK A01 T03520090  RH  020%=      5-min Rain = 0
KSB1 052231Z 30008KT 35/09 A30 RMK A01 T03530089  RH  020%=      5-min Rain = 0
KSB1 052232Z 32009KT 35/09 A30 RMK A01 T03540090  RH  020%=      5-min Rain = 0
KSB1 052233Z 34007KT 35/09 A30 RMK A01 T03510090  RH  020%=      5-min Rain = 0
KSB1 052234Z 35006KT 35/09 A30 RMK A01 T03490089  RH  020%=      5-min Rain = 0
KSB1 052235Z 01006KT 35/09 A30 RMK A01 T03470089  RH  021%=      5-min Rain = 0
KSB1 052236Z 00003KT 35/09 A30 RMK A01 T03460089  RH  021%=      5-min Rain = 0
KSB1 052237Z 35003KT 35/09 A30 RMK A01 T03450089  RH  021%=      5-min Rain = 0
KSB1 052238Z 32008KT 35/09 A2999 RMK A01 T03490089  RH  020%=      5-min Rain = 0
KSB1 052239Z 30007KT 35/09 A2999 RMK A01 T03520088  RH  020%=      5-min Rain = 0
KSB1 052240Z 30005KT 36/09 A2999 RMK A01 T03560088  RH  019%=      5-min Rain = 0
KSB1 052241Z 30004KT 36/09 A2999 RMK A01 T03600089  RH  019%=      5-min Rain = 0
KSB1 052242Z 32007KT 36/09 A2999 RMK A01 T03620088  RH  019%=      5-min Rain = 0
KSB1 052243Z 34004KT 36/08 A2999 RMK A01 T03580084  RH  019%=      5-min Rain = 0
KSB1 052244Z 29004KT 35/09 A2999 RMK A01 T03520086  RH  020%=      5-min Rain = 0
KSB1 052245Z 26008KT 35/08 A2999 RMK A01 T03500084  RH  020%=      5-min Rain = 0
KSB1 052246Z 28005KT 35/08 A2999 RMK A01 T03480082  RH  020%=      5-min Rain = 0
KSB1 052247Z 29005KT 35/08 A2999 RMK A01 T03470083  RH  020%=      5-min Rain = 0
KSB1 052248Z 25004KT 35/08 A2999 RMK A01 T03450083  RH  020%=      5-min Rain = 0
KSB1 052249Z 28007KT 34/08 A2999 RMK A01 T03440084  RH  020%=      5-min Rain = 0
KSB1 052250Z 30006KT 35/09 A2999 RMK A01 T03460085  RH  020%=      5-min Rain = 0
KSB1 052251Z 32003KT 35/08 A2999 RMK A01 T03470084  RH  020%=      5-min Rain = 0
KSB1 052252Z 30002KT 35/09 A2999 RMK A01 T03470085  RH  020%=      5-min Rain = 0
KSB1 052253Z 30003KT 35/09 A2999 RMK A01 T03460085  RH  020%=      5-min Rain = 0
KSB1 052254Z 30005KT 35/09 A2999 RMK A01 T03450086  RH  020%=      5-min Rain = 0
KSB1 052255Z 31005KT 35/09 A2999 RMK A01 T03450087  RH  021%=      5-min Rain = 0
KSB1 052256Z 34003KT 34/09 A2999 RMK A01 T03440087  RH  021%=      5-min Rain = 0
KSB1 052257Z 32004KT 34/09 A2999 RMK A01 T03440088  RH  021%=      5-min Rain = 0
KSB1 052258Z 30006KT 35/09 A2999 RMK A01 T03450090  RH  021%=      5-min Rain = 0
KSB1 052259Z 27004KT 34/09 A2999 RMK A01 T03440089  RH  021%=      5-min Rain = 0
KSB1 052300Z 27003KT 34/09 A2999 RMK A01 T03420089  RH  021%=      5-min Rain = 0
KSB1 052301Z 26004KT 34/09 A2999 RMK A01 T03410089  RH  021%=      5-min Rain = 0
KSB1 052302Z 30005KT 34/09 A2999 RMK A01 T03420088  RH  021%=      5-min Rain = 0
KSB1 052303Z 32005KT 34/09 A2999 RMK A01 T03430090  RH  021%=      5-min Rain = 0
KSB1 052304Z 32003KT 34/09 A2999 RMK A01 T03430091  RH  021%=      5-min Rain = 0
KSB1 052305Z 32004KT 34/09 A2999 RMK A01 T03440091  RH  021%=      5-min Rain = 0
KSB1 052306Z 28007KT 34/09 A2999 RMK A01 T03440088  RH  021%=      5-min Rain = 0
KSB1 052307Z 27005KT 34/09 A2999 RMK A01 T03440089  RH  021%=      5-min Rain = 0
KSB1 052308Z 27005KT 34/09 A2999 RMK A01 T03440086  RH  021%=      5-min Rain = 0
KSB1 052309Z 29008KT 34/08 A2999 RMK A01 T03440083  RH  020%=      5-min Rain = 0
KSB1 052310Z 29008KT 34/09 A2999 RMK A01 T03420085  RH  021%=      5-min Rain = 0
KSB1 052311Z 29008KT 34/09 A2999 RMK A01 T03410086  RH  021%=      5-min Rain = 0
KSB1 052312Z 28007KT 34/09 A2999 RMK A01 T03400085  RH  021%=      5-min Rain = 0
KSB1 052313Z 30007KT 34/09 A2999 RMK A01 T03390085  RH  021%=      5-min Rain = 0
KSB1 052314Z 30006KT 34/08 A2999 RMK A01 T03380084  RH  021%=      5-min Rain = 0
KSB1 052315Z 32004KT 34/08 A2999 RMK A01 T03370084  RH  021%=      5-min Rain = 0
KSB1 052316Z 32003KT 34/09 A2999 RMK A01 T03360085  RH  021%=      5-min Rain = 0
KSB1 052317Z 27005KT 34/08 A2999 RMK A01 T03360084  RH  021%=      5-min Rain = 0
KSB1 052318Z 27004KT 34/08 A2999 RMK A01 T03370082  RH  021%=      5-min Rain = 0
KSB1 052319Z 28005KT 34/08 A2999 RMK A01 T03370082  RH  021%=      5-min Rain = 0
KSB1 052320Z 28005KT 34/08 A2999 RMK A01 T03370082  RH  021%=      5-min Rain = 0
KSB1 052321Z 30003KT 34/08 A2999 RMK A01 T03370082  RH  021%=      5-min Rain = 0
KSB1 052322Z 29003KT 34/08 A2999 RMK A01 T03380082  RH  021%=      5-min Rain = 0
KSB1 052323Z 33003KT 34/08 A2999 RMK A01 T03390083  RH  021%=      5-min Rain = 0
KSB1 052324Z 31003KT 34/08 A2999 RMK A01 T03400082  RH  020%=      5-min Rain = 0
KSB1 052325Z 31004KT 34/08 A2999 RMK A01 T03410077  RH  020%=      5-min Rain = 0
KSB1 052326Z 31005KT 34/08 A2999 RMK A01 T03410080  RH  020%=      5-min Rain = 0
KSB1 052327Z 29007KT 34/08 A2999 RMK A01 T03410079  RH  020%=      5-min Rain = 0
KSB1 052328Z 28005KT 34/08 A2999 RMK A01 T03410078  RH  020%=      5-min Rain = 0
KSB1 052329Z 27006KT 34/08 A2999 RMK A01 T03400078  RH  020%=      5-min Rain = 0
KSB1 052330Z 28008KT 34/08 A2999 RMK A01 T03400077  RH  020%=      5-min Rain = 0
KSB1 052331Z 30006KT 34/08 A2999 RMK A01 T03400078  RH  020%=      5-min Rain = 0
KSB1 052332Z 30006KT 34/08 A2999 RMK A01 T03400079  RH  020%=      5-min Rain = 0
KSB1 052333Z 28005KT 34/08 A2999 RMK A01 T03410078  RH  020%=      5-min Rain = 0
KSB1 052334Z 28004KT 34/08 A2999 RMK A01 T03410078  RH  020%=      5-min Rain = 0
KSB1 052335Z 28007KT 34/08 A2999 RMK A01 T03410078  RH  020%=      5-min Rain = 0
KSB1 052336Z 29008KT 34/08 A2999 RMK A01 T03410077  RH  020%=      5-min Rain = 0
KSB1 052337Z 31007KT 34/08 A2999 RMK A01 T03410078  RH  020%=      5-min Rain = 0
KSB1 052338Z 31004KT 34/08 A2999 RMK A01 T03410078  RH  020%=      5-min Rain = 0
KSB1 052339Z 30005KT 34/08 A2999 RMK A01 T03400077  RH  020%=      5-min Rain = 0
KSB1 052340Z 31006KT 34/08 A2999 RMK A01 T03400076  RH  020%=      5-min Rain = 0
KSB1 052341Z 31004KT 34/08 A2999 RMK A01 T03410076  RH  019%=      5-min Rain = 0
KSB1 052342Z 30004KT 34/08 A2999 RMK A01 T03420076  RH  019%=      5-min Rain = 0
KSB1 052343Z 31004KT 34/08 A2999 RMK A01 T03410076  RH  019%=      5-min Rain = 0
KSB1 052344Z 30004KT 34/08 A2999 RMK A01 T03410076  RH  019%=      5-min Rain = 0
KSB1 052345Z 28007KT 34/08 A2999 RMK A01 T03420076  RH  019%=      5-min Rain = 0
KSB1 052346Z 28006KT 34/08 A2999 RMK A01 T03430076  RH  019%=      5-min Rain = 0
KSB1 052347Z 29006KT 34/08 A2999 RMK A01 T03420076  RH  019%=      5-min Rain = 0
KSB1 052348Z 28006KT 34/08 A2999 RMK A01 T03410077  RH  020%=      5-min Rain = 0
KSB1 052349Z 31007KT 34/08 A2999 RMK A01 T03420078  RH  020%=      5-min Rain = 0
KSB1 052350Z 31008KT 34/08 A2999 RMK A01 T03440079  RH  020%=      5-min Rain = 0
KSB1 052351Z 32006KT 34/08 A2999 RMK A01 T03430079  RH  020%=      5-min Rain = 0
KSB1 052352Z 32006KT 34/08 A2999 RMK A01 T03420080  RH  020%=      5-min Rain = 0
KSB1 052353Z 31006KT 34/08 A2999 RMK A01 T03420080  RH  020%=      5-min Rain = 0
KSB1 052354Z 33007KT 34/08 A2999 RMK A01 T03420079  RH  020%=      5-min Rain = 0
KSB1 052355Z 30005KT 34/08 A2999 RMK A01 T03430080  RH  020%=      5-min Rain = 0
KSB1 052356Z 31004KT 34/08 A2998 RMK A01 T03430080  RH  020%=      5-min Rain = 0
KSB1 052357Z 30005KT 34/08 A2998 RMK A01 T03430079  RH  020%=      5-min Rain = 0
KSB1 052358Z 28007KT 34/08 A2998 RMK A01 T03430081  RH  020%=      5-min Rain = 0
KSB1 052359Z 27007KT 35/08 A2998 RMK A01 T03450081  RH  020%=      5-min Rain = 0
KSB1 060000Z 27007KT 34/08 A2998 RMK A01 T03440080  RH  020%=      5-min Rain = 0
KSB1 060001Z 28007KT 34/08 A2998 RMK A01 T03430080  RH  020%=      5-min Rain = 0
KSB1 060002Z 29006KT 34/08 A2998 RMK A01 T03430080  RH  020%=      5-min Rain = 0
KSB1 060003Z 31007KT 34/08 A2998 RMK A01 T03430082  RH  020%=      5-min Rain = 0
KSB1 060004Z 32007KT 34/08 A2998 RMK A01 T03440081  RH  020%=      5-min Rain = 0
KSB1 060005Z 32007KT 35/08 A2998 RMK A01 T03450081  RH  020%=      5-min Rain = 0
KSB1 060006Z 32005KT 35/08 A2998 RMK A01 T03470081  RH  020%=      5-min Rain = 0
KSB1 060007Z 32006KT 35/08 A2998 RMK A01 T03460081  RH  020%=      5-min Rain = 0
KSB1 060008Z 31007KT 35/08 A2998 RMK A01 T03450081  RH  020%=      5-min Rain = 0
KSB1 060009Z 31005KT 35/08 A2998 RMK A01 T03450079  RH  019%=      5-min Rain = 0
KSB1 060010Z 30005KT 34/08 A2998 RMK A01 T03440078  RH  019%=      5-min Rain = 0
KSB1 060011Z 29005KT 34/08 A2998 RMK A01 T03430077  RH  019%=      5-min Rain = 0
KSB1 060012Z 30005KT 34/08 A2998 RMK A01 T03430078  RH  019%=      5-min Rain = 0
KSB1 060013Z 31005KT 34/08 A2998 RMK A01 T03430078  RH  020%=      5-min Rain = 0
KSB1 060014Z 32006KT 34/08 A2998 RMK A01 T03420078  RH  020%=      5-min Rain = 0
KSB1 060015Z 32005KT 34/08 A2998 RMK A01 T03430075  RH  019%=      5-min Rain = 0
KSB1 060016Z 30003KT 34/08 A2998 RMK A01 T03420075  RH  019%=      5-min Rain = 0
KSB1 060017Z 28004KT 34/08 A2998 RMK A01 T03420077  RH  019%=      5-min Rain = 0
KSB1 060018Z 26004KT 34/08 A2998 RMK A01 T03430077  RH  019%=      5-min Rain = 0
KSB1 060019Z 28005KT 34/08 A2998 RMK A01 T03440076  RH  019%=      5-min Rain = 0
KSB1 060020Z 27005KT 35/08 A2998 RMK A01 T03460076  RH  019%=      5-min Rain = 0
KSB1 060021Z 26004KT 35/08 A2998 RMK A01 T03480077  RH  019%=      5-min Rain = 0
KSB1 060022Z 27006KT 35/07 A2998 RMK A01 T03490074  RH  018%=      5-min Rain = 0
KSB1 060023Z 29005KT 35/07 A2998 RMK A01 T03480073  RH  018%=      5-min Rain = 0
KSB1 060024Z 28007KT 35/07 A2998 RMK A01 T03480074  RH  019%=      5-min Rain = 0
KSB1 060025Z 28007KT 35/07 A2998 RMK A01 T03480072  RH  018%=      5-min Rain = 0
KSB1 060026Z 29003KT 35/07 A2998 RMK A01 T03480072  RH  018%=      5-min Rain = 0
KSB1 060027Z 30004KT 35/07 A2998 RMK A01 T03480073  RH  018%=      5-min Rain = 0
KSB1 060028Z 31004KT 35/07 A2998 RMK A01 T03480072  RH  018%=      5-min Rain = 0
KSB1 060029Z 30002KT 35/07 A2998 RMK A01 T03470073  RH  018%=      5-min Rain = 0
KSB1 060030Z 31002KT 35/07 A2998 RMK A01 T03460073  RH  019%=      5-min Rain = 0
KSB1 060031Z 28004KT 35/08 A2998 RMK A01 T03460075  RH  019%=      5-min Rain = 0
KSB1 060032Z 27005KT 35/08 A2998 RMK A01 T03460078  RH  019%=      5-min Rain = 0
KSB1 060033Z 25005KT 35/08 A2998 RMK A01 T03470078  RH  019%=      5-min Rain = 0
KSB1 060034Z 26006KT 35/08 A2998 RMK A01 T03470079  RH  019%=      5-min Rain = 0
KSB1 060035Z 28005KT 35/08 A2998 RMK A01 T03460078  RH  019%=      5-min Rain = 0
KSB1 060036Z 26003KT 35/08 A2998 RMK A01 T03460077  RH  019%=      5-min Rain = 0
KSB1 060037Z 26003KT 35/08 A2998 RMK A01 T03460077  RH  019%=      5-min Rain = 0
KSB1 060038Z 25004KT 35/08 A2998 RMK A01 T03470077  RH  019%=      5-min Rain = 0
KSB1 060039Z 26005KT 35/08 A2998 RMK A01 T03470077  RH  019%=      5-min Rain = 0
KSB1 060040Z 27006KT 35/08 A2998 RMK A01 T03470076  RH  019%=      5-min Rain = 0
KSB1 060041Z 27005KT 35/08 A2998 RMK A01 T03470077  RH  019%=      5-min Rain = 0
KSB1 060042Z 28004KT 35/08 A2998 RMK A01 T03480076  RH  019%=      5-min Rain = 0
KSB1 060043Z 28003KT 35/08 A2998 RMK A01 T03480077  RH  019%=      5-min Rain = 0
KSB1 060044Z 28003KT 35/08 A2998 RMK A01 T03490077  RH  019%=      5-min Rain = 0
KSB1 060045Z 30002KT 35/08 A2998 RMK A01 T03490077  RH  019%=      5-min Rain = 0
KSB1 060046Z 27001KT 35/08 A2998 RMK A01 T03480077  RH  019%=      5-min Rain = 0
KSB1 060047Z 26001KT 35/08 A2998 RMK A01 T03490077  RH  019%=      5-min Rain = 0
KSB1 060048Z 29001KT 35/08 A2998 RMK A01 T03510077  RH  019%=      5-min Rain = 0
KSB1 060049Z 29001KT 35/08 A2998 RMK A01 T03520077  RH  019%=      5-min Rain = 0
KSB1 060050Z 34000KT 35/08 A2998 RMK A01 T03540077  RH  018%=      5-min Rain = 0
KSB1 060051Z 35001KT 36/08 A2998 RMK A01 T03550076  RH  018%=      5-min Rain = 0
KSB1 060052Z 32002KT 36/08 A2998 RMK A01 T03560077  RH  018%=      5-min Rain = 0
KSB1 060053Z 36002KT 36/08 A2998 RMK A01 T03560076  RH  018%=      5-min Rain = 0
KSB1 060054Z 34002KT 36/08 A2998 RMK A01 T03560076  RH  018%=      5-min Rain = 0
KSB1 060055Z 35004KT 35/08 A2998 RMK A01 T03540076  RH  018%=      5-min Rain = 0
KSB1 060056Z 35004KT 35/07 A2998 RMK A01 T03510074  RH  018%=      5-min Rain = 0
KSB1 060057Z 36003KT 35/07 A2998 RMK A01 T03480073  RH  018%=      5-min Rain = 0
KSB1 060058Z 35003KT 35/07 A2998 RMK A01 T03450074  RH  019%=      5-min Rain = 0
KSB1 060059Z 35002KT 34/07 A2998 RMK A01 T03440074  RH  019%=      5-min Rain = 0
KSB1 060100Z 00000KT 34/08 A2998 RMK A01 T03430075  RH  019%=      5-min Rain = 0
KSB1 060101Z 00000KT 34/08 A2998 RMK A01 T03420075  RH  019%=      5-min Rain = 0
KSB1 060102Z 00000KT 34/07 A2998 RMK A01 T03420074  RH  019%=      5-min Rain = 0
KSB1 060103Z 29001KT 34/07 A2998 RMK A01 T03430074  RH  019%=      5-min Rain = 0
KSB1 060104Z 30002KT 34/07 A2998 RMK A01 T03430074  RH  019%=      5-min Rain = 0
KSB1 060105Z 28002KT 34/08 A2998 RMK A01 T03430075  RH  019%=      5-min Rain = 0
KSB1 060106Z 29001KT 34/08 A2999 RMK A01 T03420075  RH  019%=      5-min Rain = 0
KSB1 060107Z 29000KT 34/08 A2999 RMK A01 T03420075  RH  019%=      5-min Rain = 0
KSB1 060108Z 15000KT 34/08 A2999 RMK A01 T03420075  RH  019%=      5-min Rain = 0
KSB1 060109Z 08000KT 34/08 A2999 RMK A01 T03420075  RH  019%=      5-min Rain = 0
KSB1 060110Z 07002KT 34/08 A2999 RMK A01 T03420075  RH  019%=      5-min Rain = 0
KSB1 060111Z 08001KT 34/08 A2999 RMK A01 T03420076  RH  019%=      5-min Rain = 0
KSB1 060112Z 04001KT 34/08 A2999 RMK A01 T03430076  RH  019%=      5-min Rain = 0
KSB1 060113Z 06003KT 34/08 A2999 RMK A01 T03420077  RH  019%=      5-min Rain = 0
KSB1 060114Z 05004KT 34/08 A2999 RMK A01 T03420077  RH  019%=      5-min Rain = 0
KSB1 060115Z 05003KT 34/08 A2999 RMK A01 T03410075  RH  019%=      5-min Rain = 0
KSB1 060116Z 07001KT 34/08 A2999 RMK A01 T03400075  RH  019%=      5-min Rain = 0
KSB1 060117Z 10001KT 34/08 A2999 RMK A01 T03400075  RH  020%=      5-min Rain = 0
KSB1 060118Z 09001KT 34/08 A2999 RMK A01 T03400076  RH  020%=      5-min Rain = 0
KSB1 060119Z 03001KT 34/08 A2999 RMK A01 T03400076  RH  020%=      5-min Rain = 0
KSB1 060120Z 05001KT 34/08 A2999 RMK A01 T03400076  RH  020%=      5-min Rain = 0
KSB1 060121Z 09003KT 34/08 A2999 RMK A01 T03400077  RH  020%=      5-min Rain = 0
KSB1 060122Z 10004KT 34/08 A2999 RMK A01 T03400076  RH  020%=      5-min Rain = 0
KSB1 060123Z 12006KT 34/08 A2999 RMK A01 T03400077  RH  020%=      5-min Rain = 0
KSB1 060124Z 10011KT 34/08 A30 RMK A01 T03400077  RH  020%=      5-min Rain = 0
KSB1 060125Z 10017G25KT 34/09 A3001 RMK A01 T03390091  RH  022%=      5-min Rain = 0
KSB1 060126Z 10021KT 33/11 A30 RMK A01 T03280114  RH  027%=      5-min Rain = 0
KSB1 060127Z 11017G23KT 32/12 A3001 RMK A01 T03190116  RH  029%=      5-min Rain = 0
KSB1 060128Z 12017KT 32/12 A3001 RMK A01 T03150118  RH  030%=      5-min Rain = 0
KSB1 060129Z 11017G24KT 31/12 A3001 RMK A01 T03130118  RH  030%=      5-min Rain = 0
KSB1 060130Z 12021KT 31/12 A3001 RMK A01 T03100119  RH  031%=      5-min Rain = 0
KSB1 060131Z 11018KT 31/12 A30 RMK A01 T03080119  RH  031%=      5-min Rain = 0
KSB1 060132Z 11019KT 31/12 A30 RMK A01 T03070119  RH  032%=      5-min Rain = 0
KSB1 060133Z 11018KT 31/12 A30 RMK A01 T03060119  RH  032%=      5-min Rain = 0
KSB1 060134Z 12016G21KT 31/12 A3001 RMK A01 T03060119  RH  032%=      5-min Rain = 0
KSB1 060135Z 13021KT 31/12 A3001 RMK A01 T03050119  RH  032%=      5-min Rain = 0
KSB1 060136Z 12017G22KT 31/12 A3001 RMK A01 T03050119  RH  032%=      5-min Rain = 0
KSB1 060137Z 12013KT 30/12 A3001 RMK A01 T03040119  RH  032%=      5-min Rain = 0
KSB1 060138Z 11019KT 30/12 A30 RMK A01 T03040119  RH  032%=      5-min Rain = 0
KSB1 060139Z 11021KT 30/12 A30 RMK A01 T03030119  RH  032%=      5-min Rain = 0
KSB1 060140Z 12020G25KT 30/12 A30 RMK A01 T03020120  RH  033%=      5-min Rain = 0
KSB1 060141Z 12020KT 30/12 A3001 RMK A01 T03010120  RH  033%=      5-min Rain = 0
KSB1 060142Z 11019KT 30/12 A3001 RMK A01 T03010120  RH  033%=      5-min Rain = 0
KSB1 060143Z 11023KT 30/12 A3001 RMK A01 T03000121  RH  033%=      5-min Rain = 0
KSB1 060144Z 11020G25KT 30/12 A3001 RMK A01 T02990121  RH  033%=      5-min Rain = 0
KSB1 060145Z 11017G22KT 30/12 A3001 RMK A01 T02990121  RH  034%=      5-min Rain = 0
KSB1 060146Z 11014KT 30/12 A3001 RMK A01 T02980121  RH  034%=      5-min Rain = 0
KSB1 060147Z 11020KT 30/12 A3001 RMK A01 T02990122  RH  034%=      5-min Rain = 0
KSB1 060148Z 11022G27KT 30/12 A3001 RMK A01 T02980121  RH  034%=      5-min Rain = 0
KSB1 060149Z 11018KT 30/12 A3001 RMK A01 T02970122  RH  034%=      5-min Rain = 0
KSB1 060150Z 11019KT 30/12 A3001 RMK A01 T02970122  RH  034%=      5-min Rain = 0
KSB1 060151Z 11018G23KT 30/12 A3001 RMK A01 T02970122  RH  034%=      5-min Rain = 0
KSB1 060152Z 11020KT 30/12 A3001 RMK A01 T02960123  RH  034%=      5-min Rain = 0
KSB1 060153Z 11019KT 30/12 A3001 RMK A01 T02950123  RH  035%=      5-min Rain = 0
KSB1 060154Z 12016G24KT 30/12 A3001 RMK A01 T02950123  RH  035%=      5-min Rain = 0
KSB1 060155Z 12020KT 29/12 A3001 RMK A01 T02940123  RH  035%=      5-min Rain = 0
KSB1 060156Z 11018KT 29/12 A3001 RMK A01 T02930123  RH  035%=      5-min Rain = 0
KSB1 060157Z 11018KT 29/12 A3001 RMK A01 T02930123  RH  035%=      5-min Rain = 0
KSB1 060158Z 12017KT 29/12 A3002 RMK A01 T02920124  RH  035%=      5-min Rain = 0
KSB1 060159Z 11017KT 29/12 A3002 RMK A01 T02920124  RH  036%=      5-min Rain = 0
KSB1 060200Z 12017KT 29/13 A3002 RMK A01 T02910125  RH  036%=      5-min Rain = 0
KSB1 060201Z 13016KT 29/13 A3002 RMK A01 T02900125  RH  036%=      5-min Rain = 0
KSB1 060202Z 12013KT 29/13 A3002 RMK A01 T02900126  RH  036%=      5-min Rain = 0
KSB1 060203Z 13015KT 29/13 A3002 RMK A01 T02890126  RH  037%=      5-min Rain = 0
KSB1 060204Z 12016KT 29/13 A3002 RMK A01 T02880127  RH  037%=      5-min Rain = 0
KSB1 060205Z 12018KT 29/13 A3002 RMK A01 T02870128  RH  037%=      5-min Rain = 0
KSB1 060206Z 12016KT 29/13 A3002 RMK A01 T02860128  RH  038%=      5-min Rain = 0
KSB1 060207Z 12013KT 29/13 A3002 RMK A01 T02860129  RH  038%=      5-min Rain = 0
KSB1 060208Z 12013KT 29/13 A3002 RMK A01 T02850129  RH  038%=      5-min Rain = 0
KSB1 060209Z 12012KT 29/13 A3002 RMK A01 T02850130  RH  038%=      5-min Rain = 0
KSB1 060210Z 12015KT 28/13 A3002 RMK A01 T02840129  RH  039%=      5-min Rain = 0
KSB1 060211Z 12013KT 28/13 A3002 RMK A01 T02830130  RH  039%=      5-min Rain = 0
KSB1 060212Z 12011KT 28/13 A3002 RMK A01 T02830130  RH  039%=      5-min Rain = 0
KSB1 060213Z 13015KT 28/13 A3002 RMK A01 T02820130  RH  039%=      5-min Rain = 0
KSB1 060214Z 13016KT 28/13 A3002 RMK A01 T02830130  RH  039%=      5-min Rain = 0
KSB1 060215Z 13014KT 28/13 A3002 RMK A01 T02820130  RH  039%=      5-min Rain = 0
KSB1 060216Z 13014KT 28/13 A3002 RMK A01 T02820130  RH  039%=      5-min Rain = 0
KSB1 060217Z 12016KT 28/13 A3002 RMK A01 T02820130  RH  039%=      5-min Rain = 0
KSB1 060218Z 13013KT 28/13 A3002 RMK A01 T02810130  RH  039%=      5-min Rain = 0
KSB1 060219Z 13014G19KT 28/13 A3002 RMK A01 T02810130  RH  039%=      5-min Rain = 0
KSB1 060220Z 13014KT 28/13 A3002 RMK A01 T02800129  RH  039%=      5-min Rain = 0
KSB1 060221Z 12015KT 28/13 A3002 RMK A01 T02800130  RH  039%=      5-min Rain = 0
KSB1 060222Z 12013KT 28/13 A3002 RMK A01 T02800130  RH  040%=      5-min Rain = 0
KSB1 060223Z 12013KT 28/13 A3002 RMK A01 T02800130  RH  040%=      5-min Rain = 0
KSB1 060224Z 12015KT 28/13 A3002 RMK A01 T02800129  RH  040%=      5-min Rain = 0
KSB1 060225Z 13015KT 28/13 A3002 RMK A01 T02790129  RH  039%=      5-min Rain = 0
KSB1 060226Z 13012KT 28/13 A3002 RMK A01 T02790129  RH  039%=      5-min Rain = 0
KSB1 060227Z 12013KT 28/13 A3002 RMK A01 T02790129  RH  039%=      5-min Rain = 0
KSB1 060228Z 12013KT 28/13 A3002 RMK A01 T02800129  RH  039%=      5-min Rain = 0
KSB1 060229Z 13014KT 28/13 A3002 RMK A01 T02790128  RH  039%=      5-min Rain = 0
KSB1 060230Z 12014KT 28/13 A3002 RMK A01 T02790128  RH  039%=      5-min Rain = 0
KSB1 060231Z 13013KT 28/13 A3002 RMK A01 T02790128  RH  039%=      5-min Rain = 0
KSB1 060232Z 13012KT 28/13 A3002 RMK A01 T02790128  RH  039%=      5-min Rain = 0
KSB1 060233Z 13012KT 28/13 A3002 RMK A01 T02790128  RH  039%=      5-min Rain = 0
KSB1 060234Z 13013KT 28/13 A3002 RMK A01 T02790128  RH  039%=      5-min Rain = 0
KSB1 060235Z 13014KT 28/13 A3002 RMK A01 T02790127  RH  039%=      5-min Rain = 0
KSB1 060236Z 13013KT 28/13 A3002 RMK A01 T02790126  RH  039%=      5-min Rain = 0
KSB1 060237Z 13014KT 28/13 A3002 RMK A01 T02790126  RH  039%=      5-min Rain = 0
KSB1 060238Z 14013KT 28/13 A3003 RMK A01 T02800127  RH  039%=      5-min Rain = 0
KSB1 060239Z 13013KT 28/13 A3002 RMK A01 T02790126  RH  039%=      5-min Rain = 0
KSB1 060240Z 13012KT 28/13 A3003 RMK A01 T02790126  RH  039%=      5-min Rain = 0
KSB1 060241Z 13013KT 28/13 A3003 RMK A01 T02800126  RH  039%=      5-min Rain = 0
KSB1 060242Z 13014KT 28/13 A3003 RMK A01 T02800125  RH  038%=      5-min Rain = 0
KSB1 060243Z 13012KT 28/13 A3003 RMK A01 T02800125  RH  038%=      5-min Rain = 0
KSB1 060244Z 13014KT 28/13 A3003 RMK A01 T02810125  RH  038%=      5-min Rain = 0
KSB1 060245Z 13013KT 28/13 A3003 RMK A01 T02810125  RH  038%=      5-min Rain = 0
KSB1 060246Z 13013KT 28/13 A3003 RMK A01 T02810125  RH  038%=      5-min Rain = 0
KSB1 060247Z 13011KT 28/13 A3003 RMK A01 T02810125  RH  038%=      5-min Rain = 0
KSB1 060248Z 14011KT 28/13 A3003 RMK A01 T02810125  RH  038%=      5-min Rain = 0
KSB1 060249Z 13009KT 28/13 A3003 RMK A01 T02800125  RH  038%=      5-min Rain = 0
KSB1 060250Z 14010KT 28/13 A3003 RMK A01 T02800125  RH  038%=      5-min Rain = 0
KSB1 060251Z 14010KT 28/13 A3003 RMK A01 T02790125  RH  038%=      5-min Rain = 0
KSB1 060252Z 14009KT 28/13 A3003 RMK A01 T02790125  RH  038%=      5-min Rain = 0
KSB1 060253Z 15009KT 28/12 A3003 RMK A01 T02790124  RH  038%=      5-min Rain = 0
KSB1 060254Z 16008KT 28/12 A3003 RMK A01 T02780124  RH  038%=      5-min Rain = 0
KSB1 060255Z 16010KT 28/12 A3003 RMK A01 T02780124  RH  038%=      5-min Rain = 0
KSB1 060256Z 16010KT 28/12 A3003 RMK A01 T02780124  RH  038%=      5-min Rain = 0
KSB1 060257Z 16015KT 28/12 A3003 RMK A01 T02790124  RH  038%=      5-min Rain = 0
KSB1 060258Z 16016KT 28/13 A3003 RMK A01 T02800126  RH  038%=      5-min Rain = 0
KSB1 060259Z 17015KT 28/13 A3003 RMK A01 T02820126  RH  038%=      5-min Rain = 0
KSB1 060300Z 17016KT 28/13 A3003 RMK A01 T02830127  RH  038%=      5-min Rain = 0
KSB1 060301Z 17014KT 28/13 A3003 RMK A01 T02830127  RH  038%=      5-min Rain = 0
KSB1 060302Z 16014KT 28/13 A3003 RMK A01 T02830127  RH  038%=      5-min Rain = 0
KSB1 060303Z 17014KT 28/13 A3003 RMK A01 T02830127  RH  038%=      5-min Rain = 0
KSB1 060304Z 17014KT 28/13 A3003 RMK A01 T02820128  RH  038%=      5-min Rain = 0
KSB1 060305Z 17014KT 28/13 A3003 RMK A01 T02820128  RH  039%=      5-min Rain = 0
KSB1 060306Z 17014KT 28/13 A3003 RMK A01 T02820128  RH  039%=      5-min Rain = 0
KSB1 060307Z 17016G21KT 28/13 A3003 RMK A01 T02810128  RH  039%=      5-min Rain = 0
KSB1 060308Z 16019KT 28/13 A3003 RMK A01 T02810129  RH  039%=      5-min Rain = 0
KSB1 060309Z 16017G22KT 28/13 A3003 RMK A01 T02810129  RH  039%=      5-min Rain = 0
KSB1 060310Z 17016KT 28/13 A3003 RMK A01 T02810129  RH  039%=      5-min Rain = 0
KSB1 060311Z 17016KT 28/13 A3003 RMK A01 T02810129  RH  039%=      5-min Rain = 0
KSB1 060312Z 17016KT 28/13 A3003 RMK A01 T02810129  RH  039%=      5-min Rain = 0
KSB1 060313Z 17013KT 28/13 A3003 RMK A01 T02810129  RH  039%=      5-min Rain = 0
KSB1 060314Z 17014KT 28/13 A3003 RMK A01 T02800129  RH  039%=      5-min Rain = 0
KSB1 060315Z 16015KT 28/13 A3003 RMK A01 T02800129  RH  039%=      5-min Rain = 0
KSB1 060316Z 16017KT 28/13 A3003 RMK A01 T02790129  RH  040%=      5-min Rain = 0
KSB1 060317Z 17012G17KT 28/13 A3003 RMK A01 T02790129  RH  040%=      5-min Rain = 0
KSB1 060318Z 17015KT 28/13 A3003 RMK A01 T02790130  RH  040%=      5-min Rain = 0
KSB1 060319Z 17015KT 28/13 A3003 RMK A01 T02790130  RH  040%=      5-min Rain = 0
KSB1 060320Z 17014KT 28/13 A3004 RMK A01 T02790130  RH  040%=      5-min Rain = 0
KSB1 060321Z 17013KT 28/13 A3003 RMK A01 T02780130  RH  040%=      5-min Rain = 0
KSB1 060322Z 17013KT 28/13 A3003 RMK A01 T02780129  RH  040%=      5-min Rain = 0
KSB1 060323Z 16013KT 28/13 A3003 RMK A01 T02780130  RH  040%=      5-min Rain = 0
KSB1 060324Z 17011KT 28/13 A3003 RMK A01 T02780130  RH  040%=      5-min Rain = 0
KSB1 060325Z 17012KT 28/13 A3003 RMK A01 T02770130  RH  040%=      5-min Rain = 0
KSB1 060326Z 17015G20KT 28/13 A3003 RMK A01 T02770130  RH  040%=      5-min Rain = 0
KSB1 060327Z 17017KT 28/13 A3003 RMK A01 T02770130  RH  040%=      5-min Rain = 0
KSB1 060328Z 18017KT 28/13 A3004 RMK A01 T02770131  RH  040%=      5-min Rain = 0
KSB1 060329Z 17016KT 28/13 A3004 RMK A01 T02770131  RH  040%=      5-min Rain = 0
KSB1 060330Z 18017KT 28/13 A3004 RMK A01 T02770131  RH  041%=      5-min Rain = 0
KSB1 060331Z 18018KT 28/13 A3004 RMK A01 T02770131  RH  041%=      5-min Rain = 0
KSB1 060332Z 17019G24KT 28/13 A3004 RMK A01 T02770132  RH  041%=      5-min Rain = 0
KSB1 060333Z 17018KT 28/13 A3004 RMK A01 T02770131  RH  041%=      5-min Rain = 0
KSB1 060334Z 17014KT 28/13 A3004 RMK A01 T02770131  RH  041%=      5-min Rain = 0
KSB1 060335Z 17016G22KT 28/13 A3004 RMK A01 T02770131  RH  041%=      5-min Rain = 0
KSB1 060336Z 18018G23KT 28/13 A3004 RMK A01 T02770131  RH  041%=      5-min Rain = 0
KSB1 060337Z 18017KT 28/13 A3004 RMK A01 T02770131  RH  041%=      5-min Rain = 0
KSB1 060338Z 18014KT 28/13 A3004 RMK A01 T02770131  RH  041%=      5-min Rain = 0
KSB1 060339Z 18019G24KT 28/13 A3004 RMK A01 T02770131  RH  041%=      5-min Rain = 0
KSB1 060340Z 17019KT 28/13 A3004 RMK A01 T02770131  RH  041%=      5-min Rain = 0
KSB1 060341Z 18016KT 28/13 A3004 RMK A01 T02770131  RH  041%=      5-min Rain = 0
KSB1 060342Z 18015G20KT 28/13 A3004 RMK A01 T02770131  RH  041%=      5-min Rain = 0
KSB1 060343Z 17017KT 28/13 A3005 RMK A01 T02770131  RH  041%=      5-min Rain = 0
KSB1 060344Z 17018KT 28/13 A3005 RMK A01 T02760131  RH  041%=      5-min Rain = 0
KSB1 060345Z 18018KT 28/13 A3005 RMK A01 T02760130  RH  041%=      5-min Rain = 0
KSB1 060346Z 18015KT 28/13 A3005 RMK A01 T02760130  RH  041%=      5-min Rain = 0
KSB1 060347Z 18015KT 28/13 A3005 RMK A01 T02770131  RH  041%=      5-min Rain = 0
KSB1 060348Z 18014G19KT 28/13 A3005 RMK A01 T02760130  RH  040%=      5-min Rain = 0
KSB1 060349Z 17017KT 28/13 A3005 RMK A01 T02760130  RH  040%=      5-min Rain = 0
KSB1 060350Z 17015KT 28/13 A3005 RMK A01 T02760129  RH  040%=      5-min Rain = 0
KSB1 060351Z 18014KT 28/13 A3005 RMK A01 T02760129  RH  040%=      5-min Rain = 0
KSB1 060352Z 18014KT 28/13 A3005 RMK A01 T02760129  RH  040%=      5-min Rain = 0
KSB1 060353Z 17014KT 28/13 A3005 RMK A01 T02750128  RH  040%=      5-min Rain = 0
KSB1 060354Z 18013KT 28/13 A3005 RMK A01 T02750128  RH  040%=      5-min Rain = 0
KSB1 060355Z 19014KT 28/13 A3005 RMK A01 T02750128  RH  040%=      5-min Rain = 0
KSB1 060356Z 18014KT 28/13 A3005 RMK A01 T02750128  RH  040%=      5-min Rain = 0
KSB1 060357Z 19011KT 28/13 A3005 RMK A01 T02750128  RH  040%=      5-min Rain = 0
KSB1 060358Z 18012KT 28/13 A3006 RMK A01 T02750128  RH  040%=      5-min Rain = 0
KSB1 060359Z 18011KT 28/13 A3006 RMK A01 T02750128  RH  040%=      5-min Rain = 0
KSB1 060400Z 18010KT 28/13 A3006 RMK A01 T02750128  RH  040%=      5-min Rain = 0
KSB1 060401Z 19013KT 27/13 A3006 RMK A01 T02740128  RH  040%=      5-min Rain = 0
KSB1 060402Z 19014KT 27/13 A3006 RMK A01 T02740128  RH  040%=      5-min Rain = 0
KSB1 060403Z 18014KT 28/13 A3006 RMK A01 T02750128  RH  040%=      5-min Rain = 0
KSB1 060404Z 17011KT 27/13 A3006 RMK A01 T02740128  RH  040%=      5-min Rain = 0
KSB1 060405Z 18012KT 27/13 A3006 RMK A01 T02740128  RH  040%=      5-min Rain = 0
KSB1 060406Z 18009KT 27/13 A3006 RMK A01 T02740128  RH  040%=      5-min Rain = 0
KSB1 060407Z 17009KT 27/13 A3006 RMK A01 T02730128  RH  041%=      5-min Rain = 0
KSB1 060408Z 17013KT 27/13 A3006 RMK A01 T02730127  RH  041%=      5-min Rain = 0
KSB1 060409Z 17014KT 27/13 A3006 RMK A01 T02730127  RH  040%=      5-min Rain = 0
KSB1 060410Z 17012KT 27/13 A3006 RMK A01 T02730127  RH  040%=      5-min Rain = 0
KSB1 060411Z 18011KT 27/13 A3006 RMK A01 T02740127  RH  040%=      5-min Rain = 0
KSB1 060412Z 18010KT 27/13 A3006 RMK A01 T02730127  RH  040%=      5-min Rain = 0
KSB1 060413Z 18009KT 27/13 A3006 RMK A01 T02730127  RH  040%=      5-min Rain = 0
KSB1 060414Z 17010KT 27/13 A3006 RMK A01 T02730127  RH  040%=      5-min Rain = 0
KSB1 060415Z 17009KT 27/13 A3006 RMK A01 T02720127  RH  041%=      5-min Rain = 0
KSB1 060416Z 16011KT 27/13 A3006 RMK A01 T02720127  RH  041%=      5-min Rain = 0
KSB1 060417Z 17010KT 27/13 A3007 RMK A01 T02720127  RH  041%=      5-min Rain = 0
KSB1 060418Z 17009KT 27/13 A3007 RMK A01 T02710127  RH  041%=      5-min Rain = 0
KSB1 060419Z 16009KT 27/13 A3007 RMK A01 T02710127  RH  041%=      5-min Rain = 0
KSB1 060420Z 16010KT 27/13 A3007 RMK A01 T02710126  RH  041%=      5-min Rain = 0
KSB1 060421Z 17010KT 27/13 A3007 RMK A01 T02700126  RH  041%=      5-min Rain = 0
KSB1 060422Z 16006KT 27/13 A3007 RMK A01 T02700126  RH  041%=      5-min Rain = 0
KSB1 060423Z 15005KT 27/13 A3007 RMK A01 T02700127  RH  041%=      5-min Rain = 0
KSB1 060424Z 17006KT 27/13 A3007 RMK A01 T02690127  RH  041%=      5-min Rain = 0
KSB1 060425Z 17008KT 27/13 A3007 RMK A01 T02680126  RH  041%=      5-min Rain = 0
KSB1 060426Z 15006KT 27/13 A3007 RMK A01 T02680126  RH  041%=      5-min Rain = 0
KSB1 060427Z 16006KT 27/13 A3007 RMK A01 T02680127  RH  042%=      5-min Rain = 0
KSB1 060428Z 15007KT 27/13 A3007 RMK A01 T02670127  RH  042%=      5-min Rain = 0
KSB1 060429Z 16009KT 27/13 A3007 RMK A01 T02660127  RH  042%=      5-min Rain = 0
KSB1 060430Z 17007KT 27/13 A3007 RMK A01 T02660127  RH  042%=      5-min Rain = 0
KSB1 060431Z 16009KT 27/13 A3007 RMK A01 T02660127  RH  042%=      5-min Rain = 0
KSB1 060432Z 17009KT 27/13 A3006 RMK A01 T02660126  RH  042%=      5-min Rain = 0
KSB1 060433Z 17010KT 27/13 A3006 RMK A01 T02670126  RH  042%=      5-min Rain = 0
KSB1 060434Z 17008KT 27/13 A3006 RMK A01 T02670126  RH  041%=      5-min Rain = 0
KSB1 060435Z 17007KT 27/13 A3006 RMK A01 T02670125  RH  041%=      5-min Rain = 0
KSB1 060436Z 16006KT 27/13 A3006 RMK A01 T02660125  RH  042%=      5-min Rain = 0
KSB1 060437Z 17006KT 27/13 A3006 RMK A01 T02660125  RH  042%=      5-min Rain = 0
KSB1 060438Z 17005KT 27/13 A3006 RMK A01 T02660126  RH  042%=      5-min Rain = 0
KSB1 060439Z 17007KT 27/13 A3007 RMK A01 T02650125  RH  042%=      5-min Rain = 0
KSB1 060440Z 17010KT 27/12 A3007 RMK A01 T02650124  RH  042%=      5-min Rain = 0
KSB1 060441Z 18010KT 27/12 A3007 RMK A01 T02650124  RH  041%=      5-min Rain = 0
KSB1 060442Z 16008KT 27/12 A3007 RMK A01 T02670124  RH  041%=      5-min Rain = 0
KSB1 060443Z 16008KT 27/13 A3007 RMK A01 T02670125  RH  041%=      5-min Rain = 0
KSB1 060444Z 16007KT 27/13 A3007 RMK A01 T02670125  RH  041%=      5-min Rain = 0
KSB1 060445Z 16010KT 27/12 A3007 RMK A01 T02660124  RH  041%=      5-min Rain = 0
KSB1 060446Z 16008KT 27/12 A3007 RMK A01 T02660124  RH  041%=      5-min Rain = 0
KSB1 060447Z 16007KT 27/12 A3007 RMK A01 T02660124  RH  041%=      5-min Rain = 0
KSB1 060448Z 16006KT 27/12 A3007 RMK A01 T02660124  RH  041%=      5-min Rain = 0
KSB1 060449Z 16007KT 27/12 A3007 RMK A01 T02660124  RH  041%=      5-min Rain = 0
KSB1 060450Z 16006KT 27/12 A3007 RMK A01 T02650124  RH  042%=      5-min Rain = 0
KSB1 060451Z 15006KT 27/12 A3007 RMK A01 T02650124  RH  042%=      5-min Rain = 0
KSB1 060452Z 16007KT 26/12 A3007 RMK A01 T02640124  RH  042%=      5-min Rain = 0
KSB1 060453Z 15007KT 26/12 A3007 RMK A01 T02640124  RH  042%=      5-min Rain = 0
KSB1 060454Z 15006KT 26/12 A3007 RMK A01 T02640123  RH  042%=      5-min Rain = 0
KSB1 060455Z 13005KT 26/12 A3007 RMK A01 T02640124  RH  042%=      5-min Rain = 0
KSB1 060456Z 13005KT 26/12 A3007 RMK A01 T02640124  RH  042%=      5-min Rain = 0
KSB1 060457Z 13006KT 26/12 A3007 RMK A01 T02630124  RH  042%=      5-min Rain = 0
KSB1 060458Z 12005KT 26/13 A3007 RMK A01 T02630125  RH  042%=      5-min Rain = 0
KSB1 060459Z 13005KT 26/12 A3007 RMK A01 T02620124  RH  042%=      5-min Rain = 0

Page generated in 0.1214 seconds.